<?xml version="1.0" encoding="UTF-8" standalone="no" ?>
<gpx xmlns="http://www.topografix.com/GPX/1/1" xmlns:xsi="http://www.w3.org/2001/XMLSchema-instance" xsi:schemaLocation="http://www.topografix.com/GPX/1/1 http://www.topografix.com/GPX/1/1/gpx.xsd" version="1.1" creator="VisuGPX - https://www.visugpx.com">
  <metadata>
    <name>Tour de l'Ailette 20 11 17</name>
    <desc><![CDATA[File with points/tracks from Locus Map/3.27.1]]></desc>
  </metadata>
  <trk>
    <name><![CDATA[2017-11-20 13:51:51]]></name>
    <trkseg>
      <trkpt lat="49.4691" lon="3.68268">
        <ele>110.25</ele>
        <time>2017-11-20T12:51:51.999Z</time>
      </trkpt>
      <trkpt lat="49.46916" lon="3.68264">
        <ele>110.69</ele>
        <time>2017-11-20T12:52:01.999Z</time>
      </trkpt>
      <trkpt lat="49.46919" lon="3.68267">
        <ele>111.22</ele>
        <time>2017-11-20T12:52:11.999Z</time>
      </trkpt>
      <trkpt lat="49.46917" lon="3.68269">
        <ele>111.75</ele>
        <time>2017-11-20T12:52:21.999Z</time>
      </trkpt>
      <trkpt lat="49.46917" lon="3.68271">
        <ele>112.63</ele>
        <time>2017-11-20T12:52:31.999Z</time>
      </trkpt>
      <trkpt lat="49.46919" lon="3.68273">
        <ele>113.7</ele>
        <time>2017-11-20T12:52:43.999Z</time>
      </trkpt>
      <trkpt lat="49.46923" lon="3.68275">
        <ele>115.07</ele>
        <time>2017-11-20T12:52:53.999Z</time>
      </trkpt>
      <trkpt lat="49.46922" lon="3.68276">
        <ele>116.57</ele>
        <time>2017-11-20T12:53:03.999Z</time>
      </trkpt>
      <trkpt lat="49.46926" lon="3.68267">
        <ele>117.2</ele>
        <time>2017-11-20T12:53:13.999Z</time>
      </trkpt>
      <trkpt lat="49.46931" lon="3.68263">
        <ele>117.46</ele>
        <time>2017-11-20T12:53:23.999Z</time>
      </trkpt>
      <trkpt lat="49.46933" lon="3.68272">
        <ele>117.34</ele>
        <time>2017-11-20T12:53:33.999Z</time>
      </trkpt>
      <trkpt lat="49.46934" lon="3.68273">
        <ele>117.15</ele>
        <time>2017-11-20T12:53:44.999Z</time>
      </trkpt>
      <trkpt lat="49.4693" lon="3.68271">
        <ele>117.03</ele>
        <time>2017-11-20T12:53:54.999Z</time>
      </trkpt>
      <trkpt lat="49.46929" lon="3.68268">
        <ele>116.73</ele>
        <time>2017-11-20T12:54:04.000Z</time>
      </trkpt>
      <trkpt lat="49.46932" lon="3.68268">
        <ele>116.76</ele>
        <time>2017-11-20T12:54:14.000Z</time>
      </trkpt>
      <trkpt lat="49.46936" lon="3.68274">
        <ele>116.42</ele>
        <time>2017-11-20T12:54:24.000Z</time>
      </trkpt>
      <trkpt lat="49.46943" lon="3.68274">
        <ele>115.44</ele>
        <time>2017-11-20T12:54:34.000Z</time>
      </trkpt>
      <trkpt lat="49.4694" lon="3.68277">
        <ele>115.22</ele>
        <time>2017-11-20T12:54:44.000Z</time>
      </trkpt>
      <trkpt lat="49.46935" lon="3.6828">
        <ele>115.5</ele>
        <time>2017-11-20T12:54:54.000Z</time>
      </trkpt>
      <trkpt lat="49.46932" lon="3.68279">
        <ele>115.8</ele>
        <time>2017-11-20T12:55:04.000Z</time>
      </trkpt>
      <trkpt lat="49.46931" lon="3.6828">
        <ele>117.39</ele>
        <time>2017-11-20T12:55:14.000Z</time>
      </trkpt>
      <trkpt lat="49.46933" lon="3.68277">
        <ele>118.55</ele>
        <time>2017-11-20T12:55:24.000Z</time>
      </trkpt>
      <trkpt lat="49.46931" lon="3.68277">
        <ele>119.03</ele>
        <time>2017-11-20T12:55:34.000Z</time>
      </trkpt>
      <trkpt lat="49.46929" lon="3.68277">
        <ele>119.29</ele>
        <time>2017-11-20T12:55:44.000Z</time>
      </trkpt>
      <trkpt lat="49.4693" lon="3.68276">
        <ele>119.33</ele>
        <time>2017-11-20T12:55:54.000Z</time>
      </trkpt>
      <trkpt lat="49.46929" lon="3.68276">
        <ele>119.64</ele>
        <time>2017-11-20T12:56:04.000Z</time>
      </trkpt>
      <trkpt lat="49.4693" lon="3.68276">
        <ele>119.8</ele>
        <time>2017-11-20T12:56:14.000Z</time>
      </trkpt>
      <trkpt lat="49.46931" lon="3.68278">
        <ele>120.01</ele>
        <time>2017-11-20T12:56:24.000Z</time>
      </trkpt>
      <trkpt lat="49.46936" lon="3.68269">
        <ele>120.35</ele>
        <time>2017-11-20T12:56:34.000Z</time>
      </trkpt>
      <trkpt lat="49.46939" lon="3.68264">
        <ele>118.94</ele>
        <time>2017-11-20T12:56:44.000Z</time>
      </trkpt>
      <trkpt lat="49.46939" lon="3.68266">
        <ele>118.32</ele>
        <time>2017-11-20T12:56:58.000Z</time>
      </trkpt>
      <trkpt lat="49.46933" lon="3.68269">
        <ele>118.37</ele>
        <time>2017-11-20T12:57:08.000Z</time>
      </trkpt>
      <trkpt lat="49.46936" lon="3.68274">
        <ele>118.31</ele>
        <time>2017-11-20T12:57:18.000Z</time>
      </trkpt>
      <trkpt lat="49.46931" lon="3.68279">
        <ele>118.25</ele>
        <time>2017-11-20T12:57:28.000Z</time>
      </trkpt>
      <trkpt lat="49.4693" lon="3.68279">
        <ele>118.27</ele>
        <time>2017-11-20T12:57:38.000Z</time>
      </trkpt>
      <trkpt lat="49.4693" lon="3.68275">
        <ele>118.43</ele>
        <time>2017-11-20T12:57:48.000Z</time>
      </trkpt>
      <trkpt lat="49.46931" lon="3.68272">
        <ele>118.52</ele>
        <time>2017-11-20T12:57:58.000Z</time>
      </trkpt>
      <trkpt lat="49.46927" lon="3.68277">
        <ele>118.64</ele>
        <time>2017-11-20T12:58:08.000Z</time>
      </trkpt>
      <trkpt lat="49.46927" lon="3.68275">
        <ele>118.67</ele>
        <time>2017-11-20T12:58:18.000Z</time>
      </trkpt>
      <trkpt lat="49.46926" lon="3.68275">
        <ele>119.02</ele>
        <time>2017-11-20T12:58:31.000Z</time>
      </trkpt>
      <trkpt lat="49.46923" lon="3.68278">
        <ele>119.89</ele>
        <time>2017-11-20T12:58:41.000Z</time>
      </trkpt>
      <trkpt lat="49.46923" lon="3.6828">
        <ele>119.72</ele>
        <time>2017-11-20T12:58:52.000Z</time>
      </trkpt>
      <trkpt lat="49.46926" lon="3.68276">
        <ele>119.78</ele>
        <time>2017-11-20T12:59:02.000Z</time>
      </trkpt>
      <trkpt lat="49.46931" lon="3.68277">
        <ele>120.18</ele>
        <time>2017-11-20T12:59:12.000Z</time>
      </trkpt>
      <trkpt lat="49.46932" lon="3.68278">
        <ele>120.38</ele>
        <time>2017-11-20T12:59:22.000Z</time>
      </trkpt>
      <trkpt lat="49.46934" lon="3.68276">
        <ele>120.33</ele>
        <time>2017-11-20T12:59:32.000Z</time>
      </trkpt>
      <trkpt lat="49.46932" lon="3.68278">
        <ele>120.2</ele>
        <time>2017-11-20T12:59:42.000Z</time>
      </trkpt>
      <trkpt lat="49.46932" lon="3.68276">
        <ele>120.26</ele>
        <time>2017-11-20T12:59:52.000Z</time>
      </trkpt>
      <trkpt lat="49.46931" lon="3.68274">
        <ele>120.91</ele>
        <time>2017-11-20T13:00:02.000Z</time>
      </trkpt>
      <trkpt lat="49.46932" lon="3.6827">
        <ele>121.55</ele>
        <time>2017-11-20T13:00:12.000Z</time>
      </trkpt>
      <trkpt lat="49.46929" lon="3.68274">
        <ele>122.08</ele>
        <time>2017-11-20T13:00:22.000Z</time>
      </trkpt>
      <trkpt lat="49.46925" lon="3.68275">
        <ele>121.95</ele>
        <time>2017-11-20T13:00:32.000Z</time>
      </trkpt>
      <trkpt lat="49.46924" lon="3.68274">
        <ele>121.7</ele>
        <time>2017-11-20T13:00:48.000Z</time>
      </trkpt>
      <trkpt lat="49.46917" lon="3.68281">
        <ele>120.75</ele>
        <time>2017-11-20T13:00:58.000Z</time>
      </trkpt>
      <trkpt lat="49.46912" lon="3.68289">
        <ele>120</ele>
        <time>2017-11-20T13:01:08.000Z</time>
      </trkpt>
      <trkpt lat="49.46904" lon="3.68297">
        <ele>119.4</ele>
        <time>2017-11-20T13:01:18.000Z</time>
      </trkpt>
      <trkpt lat="49.46893" lon="3.68302">
        <ele>118.89</ele>
        <time>2017-11-20T13:01:28.000Z</time>
      </trkpt>
      <trkpt lat="49.46884" lon="3.68305">
        <ele>118.4</ele>
        <time>2017-11-20T13:01:38.000Z</time>
      </trkpt>
      <trkpt lat="49.46876" lon="3.68297">
        <ele>117.86</ele>
        <time>2017-11-20T13:01:48.000Z</time>
      </trkpt>
      <trkpt lat="49.46867" lon="3.68294">
        <ele>117.71</ele>
        <time>2017-11-20T13:01:58.000Z</time>
      </trkpt>
      <trkpt lat="49.4685" lon="3.68289">
        <ele>117.95</ele>
        <time>2017-11-20T13:02:08.000Z</time>
      </trkpt>
      <trkpt lat="49.46849" lon="3.68286">
        <ele>117.68</ele>
        <time>2017-11-20T13:02:18.000Z</time>
      </trkpt>
      <trkpt lat="49.46849" lon="3.6827">
        <ele>117.42</ele>
        <time>2017-11-20T13:02:28.000Z</time>
      </trkpt>
      <trkpt lat="49.46842" lon="3.68268">
        <ele>117.3</ele>
        <time>2017-11-20T13:02:38.000Z</time>
      </trkpt>
      <trkpt lat="49.46831" lon="3.68268">
        <ele>116.78</ele>
        <time>2017-11-20T13:02:48.000Z</time>
      </trkpt>
      <trkpt lat="49.46818" lon="3.68274">
        <ele>115.45</ele>
        <time>2017-11-20T13:02:58.000Z</time>
      </trkpt>
      <trkpt lat="49.46809" lon="3.68279">
        <ele>114.55</ele>
        <time>2017-11-20T13:03:08.000Z</time>
      </trkpt>
      <trkpt lat="49.46802" lon="3.68283">
        <ele>113.97</ele>
        <time>2017-11-20T13:03:18.000Z</time>
      </trkpt>
      <trkpt lat="49.46797" lon="3.6829">
        <ele>113.51</ele>
        <time>2017-11-20T13:03:28.000Z</time>
      </trkpt>
      <trkpt lat="49.46785" lon="3.68299">
        <ele>112.83</ele>
        <time>2017-11-20T13:03:38.000Z</time>
      </trkpt>
      <trkpt lat="49.46779" lon="3.68313">
        <ele>111.95</ele>
        <time>2017-11-20T13:03:48.000Z</time>
      </trkpt>
      <trkpt lat="49.46772" lon="3.68317">
        <ele>111.91</ele>
        <time>2017-11-20T13:03:58.000Z</time>
      </trkpt>
      <trkpt lat="49.46762" lon="3.68323">
        <ele>111.97</ele>
        <time>2017-11-20T13:04:08.000Z</time>
      </trkpt>
      <trkpt lat="49.46754" lon="3.68335">
        <ele>112.56</ele>
        <time>2017-11-20T13:04:18.000Z</time>
      </trkpt>
      <trkpt lat="49.46749" lon="3.68346">
        <ele>112.73</ele>
        <time>2017-11-20T13:04:28.000Z</time>
      </trkpt>
      <trkpt lat="49.46739" lon="3.68357">
        <ele>112.83</ele>
        <time>2017-11-20T13:04:38.000Z</time>
      </trkpt>
      <trkpt lat="49.46732" lon="3.68372">
        <ele>113.23</ele>
        <time>2017-11-20T13:04:48.000Z</time>
      </trkpt>
      <trkpt lat="49.46727" lon="3.68379">
        <ele>113.67</ele>
        <time>2017-11-20T13:04:58.000Z</time>
      </trkpt>
      <trkpt lat="49.46717" lon="3.68387">
        <ele>113.39</ele>
        <time>2017-11-20T13:05:08.000Z</time>
      </trkpt>
      <trkpt lat="49.46708" lon="3.68398">
        <ele>112.53</ele>
        <time>2017-11-20T13:05:18.000Z</time>
      </trkpt>
      <trkpt lat="49.46697" lon="3.68413">
        <ele>112.32</ele>
        <time>2017-11-20T13:05:28.000Z</time>
      </trkpt>
      <trkpt lat="49.4669" lon="3.68422">
        <ele>112.71</ele>
        <time>2017-11-20T13:05:38.000Z</time>
      </trkpt>
      <trkpt lat="49.46682" lon="3.68433">
        <ele>113.17</ele>
        <time>2017-11-20T13:05:48.000Z</time>
      </trkpt>
      <trkpt lat="49.46674" lon="3.68445">
        <ele>114.17</ele>
        <time>2017-11-20T13:05:58.000Z</time>
      </trkpt>
      <trkpt lat="49.46662" lon="3.68467">
        <ele>115.5</ele>
        <time>2017-11-20T13:06:08.000Z</time>
      </trkpt>
      <trkpt lat="49.46657" lon="3.68479">
        <ele>117.55</ele>
        <time>2017-11-20T13:06:18.000Z</time>
      </trkpt>
      <trkpt lat="49.46649" lon="3.68496">
        <ele>120.11</ele>
        <time>2017-11-20T13:06:28.000Z</time>
      </trkpt>
      <trkpt lat="49.46643" lon="3.68512">
        <ele>122.78</ele>
        <time>2017-11-20T13:06:38.000Z</time>
      </trkpt>
      <trkpt lat="49.46639" lon="3.68524">
        <ele>125</ele>
        <time>2017-11-20T13:06:48.000Z</time>
      </trkpt>
      <trkpt lat="49.46633" lon="3.68537">
        <ele>126.56</ele>
        <time>2017-11-20T13:06:58.000Z</time>
      </trkpt>
      <trkpt lat="49.46629" lon="3.68546">
        <ele>127.31</ele>
        <time>2017-11-20T13:07:08.000Z</time>
      </trkpt>
      <trkpt lat="49.46625" lon="3.68557">
        <ele>128.09</ele>
        <time>2017-11-20T13:07:18.000Z</time>
      </trkpt>
      <trkpt lat="49.46616" lon="3.68572">
        <ele>128.73</ele>
        <time>2017-11-20T13:07:28.000Z</time>
      </trkpt>
      <trkpt lat="49.46611" lon="3.68583">
        <ele>128.84</ele>
        <time>2017-11-20T13:07:38.000Z</time>
      </trkpt>
      <trkpt lat="49.46604" lon="3.68597">
        <ele>128.24</ele>
        <time>2017-11-20T13:07:48.000Z</time>
      </trkpt>
      <trkpt lat="49.46598" lon="3.68611">
        <ele>127.94</ele>
        <time>2017-11-20T13:07:58.000Z</time>
      </trkpt>
      <trkpt lat="49.46591" lon="3.6863">
        <ele>127.82</ele>
        <time>2017-11-20T13:08:08.000Z</time>
      </trkpt>
      <trkpt lat="49.46588" lon="3.68644">
        <ele>127.67</ele>
        <time>2017-11-20T13:08:18.000Z</time>
      </trkpt>
      <trkpt lat="49.46582" lon="3.68659">
        <ele>127.15</ele>
        <time>2017-11-20T13:08:28.000Z</time>
      </trkpt>
      <trkpt lat="49.46577" lon="3.68675">
        <ele>126.24</ele>
        <time>2017-11-20T13:08:38.000Z</time>
      </trkpt>
      <trkpt lat="49.46574" lon="3.68692">
        <ele>125.35</ele>
        <time>2017-11-20T13:08:48.000Z</time>
      </trkpt>
      <trkpt lat="49.46571" lon="3.68711">
        <ele>124.32</ele>
        <time>2017-11-20T13:08:58.000Z</time>
      </trkpt>
      <trkpt lat="49.46567" lon="3.6873">
        <ele>123.28</ele>
        <time>2017-11-20T13:09:08.000Z</time>
      </trkpt>
      <trkpt lat="49.46561" lon="3.68745">
        <ele>122.13</ele>
        <time>2017-11-20T13:09:18.000Z</time>
      </trkpt>
      <trkpt lat="49.46559" lon="3.68762">
        <ele>120.95</ele>
        <time>2017-11-20T13:09:28.000Z</time>
      </trkpt>
      <trkpt lat="49.46554" lon="3.6878">
        <ele>120.21</ele>
        <time>2017-11-20T13:09:38.000Z</time>
      </trkpt>
      <trkpt lat="49.4655" lon="3.68797">
        <ele>119.58</ele>
        <time>2017-11-20T13:09:48.000Z</time>
      </trkpt>
      <trkpt lat="49.46547" lon="3.68814">
        <ele>119.33</ele>
        <time>2017-11-20T13:09:58.000Z</time>
      </trkpt>
      <trkpt lat="49.46545" lon="3.68831">
        <ele>119.25</ele>
        <time>2017-11-20T13:10:08.000Z</time>
      </trkpt>
      <trkpt lat="49.46544" lon="3.68849">
        <ele>119.52</ele>
        <time>2017-11-20T13:10:18.000Z</time>
      </trkpt>
      <trkpt lat="49.46544" lon="3.68869">
        <ele>119.64</ele>
        <time>2017-11-20T13:10:28.000Z</time>
      </trkpt>
      <trkpt lat="49.46544" lon="3.68887">
        <ele>119.48</ele>
        <time>2017-11-20T13:10:38.000Z</time>
      </trkpt>
      <trkpt lat="49.46544" lon="3.68903">
        <ele>119.14</ele>
        <time>2017-11-20T13:10:48.000Z</time>
      </trkpt>
      <trkpt lat="49.46545" lon="3.68922">
        <ele>119.02</ele>
        <time>2017-11-20T13:10:58.000Z</time>
      </trkpt>
      <trkpt lat="49.46546" lon="3.68946">
        <ele>120.33</ele>
        <time>2017-11-20T13:11:08.000Z</time>
      </trkpt>
      <trkpt lat="49.46548" lon="3.68964">
        <ele>120.48</ele>
        <time>2017-11-20T13:11:18.000Z</time>
      </trkpt>
      <trkpt lat="49.4655" lon="3.68983">
        <ele>120.06</ele>
        <time>2017-11-20T13:11:28.000Z</time>
      </trkpt>
      <trkpt lat="49.46556" lon="3.69001">
        <ele>119.33</ele>
        <time>2017-11-20T13:11:38.000Z</time>
      </trkpt>
      <trkpt lat="49.4656" lon="3.69013">
        <ele>118.73</ele>
        <time>2017-11-20T13:11:48.000Z</time>
      </trkpt>
      <trkpt lat="49.46572" lon="3.69032">
        <ele>117.06</ele>
        <time>2017-11-20T13:11:58.000Z</time>
      </trkpt>
      <trkpt lat="49.46574" lon="3.69047">
        <ele>114.94</ele>
        <time>2017-11-20T13:12:08.000Z</time>
      </trkpt>
      <trkpt lat="49.46577" lon="3.69065">
        <ele>113.37</ele>
        <time>2017-11-20T13:12:18.000Z</time>
      </trkpt>
      <trkpt lat="49.46579" lon="3.69081">
        <ele>111.77</ele>
        <time>2017-11-20T13:12:28.000Z</time>
      </trkpt>
      <trkpt lat="49.46578" lon="3.69091">
        <ele>111</ele>
        <time>2017-11-20T13:12:38.000Z</time>
      </trkpt>
      <trkpt lat="49.46583" lon="3.6911">
        <ele>111.38</ele>
        <time>2017-11-20T13:12:48.000Z</time>
      </trkpt>
      <trkpt lat="49.46586" lon="3.6913">
        <ele>111.33</ele>
        <time>2017-11-20T13:12:58.000Z</time>
      </trkpt>
      <trkpt lat="49.46591" lon="3.69139">
        <ele>111.26</ele>
        <time>2017-11-20T13:13:08.000Z</time>
      </trkpt>
      <trkpt lat="49.46593" lon="3.69157">
        <ele>111.54</ele>
        <time>2017-11-20T13:13:18.000Z</time>
      </trkpt>
      <trkpt lat="49.46601" lon="3.69176">
        <ele>112.26</ele>
        <time>2017-11-20T13:13:28.000Z</time>
      </trkpt>
      <trkpt lat="49.46605" lon="3.69196">
        <ele>111.88</ele>
        <time>2017-11-20T13:13:38.000Z</time>
      </trkpt>
      <trkpt lat="49.46605" lon="3.69211">
        <ele>111.42</ele>
        <time>2017-11-20T13:13:48.000Z</time>
      </trkpt>
      <trkpt lat="49.46605" lon="3.69231">
        <ele>110.87</ele>
        <time>2017-11-20T13:13:58.000Z</time>
      </trkpt>
      <trkpt lat="49.46607" lon="3.6925">
        <ele>111</ele>
        <time>2017-11-20T13:14:08.000Z</time>
      </trkpt>
      <trkpt lat="49.46607" lon="3.69269">
        <ele>111.12</ele>
        <time>2017-11-20T13:14:18.000Z</time>
      </trkpt>
      <trkpt lat="49.46603" lon="3.69288">
        <ele>110.48</ele>
        <time>2017-11-20T13:14:28.000Z</time>
      </trkpt>
      <trkpt lat="49.466" lon="3.69304">
        <ele>110.11</ele>
        <time>2017-11-20T13:14:38.000Z</time>
      </trkpt>
      <trkpt lat="49.46599" lon="3.69317">
        <ele>109.54</ele>
        <time>2017-11-20T13:14:48.000Z</time>
      </trkpt>
      <trkpt lat="49.46595" lon="3.69339">
        <ele>109.58</ele>
        <time>2017-11-20T13:14:58.000Z</time>
      </trkpt>
      <trkpt lat="49.46595" lon="3.69353">
        <ele>109.28</ele>
        <time>2017-11-20T13:15:08.000Z</time>
      </trkpt>
      <trkpt lat="49.46593" lon="3.69375">
        <ele>109.33</ele>
        <time>2017-11-20T13:15:18.000Z</time>
      </trkpt>
      <trkpt lat="49.4659" lon="3.69395">
        <ele>109.63</ele>
        <time>2017-11-20T13:15:28.000Z</time>
      </trkpt>
      <trkpt lat="49.46581" lon="3.69402">
        <ele>110.23</ele>
        <time>2017-11-20T13:15:38.000Z</time>
      </trkpt>
      <trkpt lat="49.46569" lon="3.69404">
        <ele>111.29</ele>
        <time>2017-11-20T13:15:48.000Z</time>
      </trkpt>
      <trkpt lat="49.46563" lon="3.69414">
        <ele>111.45</ele>
        <time>2017-11-20T13:15:58.000Z</time>
      </trkpt>
      <trkpt lat="49.46553" lon="3.69426">
        <ele>110.64</ele>
        <time>2017-11-20T13:16:08.000Z</time>
      </trkpt>
      <trkpt lat="49.46547" lon="3.69445">
        <ele>110.08</ele>
        <time>2017-11-20T13:16:18.000Z</time>
      </trkpt>
      <trkpt lat="49.46541" lon="3.69455">
        <ele>109.8</ele>
        <time>2017-11-20T13:16:28.000Z</time>
      </trkpt>
      <trkpt lat="49.46533" lon="3.69467">
        <ele>109.21</ele>
        <time>2017-11-20T13:16:38.000Z</time>
      </trkpt>
      <trkpt lat="49.46524" lon="3.69481">
        <ele>108.65</ele>
        <time>2017-11-20T13:16:48.000Z</time>
      </trkpt>
      <trkpt lat="49.46514" lon="3.69498">
        <ele>108.08</ele>
        <time>2017-11-20T13:16:58.000Z</time>
      </trkpt>
      <trkpt lat="49.46508" lon="3.69509">
        <ele>107.52</ele>
        <time>2017-11-20T13:17:07.999Z</time>
      </trkpt>
      <trkpt lat="49.46501" lon="3.69528">
        <ele>106.55</ele>
        <time>2017-11-20T13:17:17.999Z</time>
      </trkpt>
      <trkpt lat="49.46495" lon="3.69547">
        <ele>105.38</ele>
        <time>2017-11-20T13:17:27.999Z</time>
      </trkpt>
      <trkpt lat="49.46491" lon="3.69563">
        <ele>104.26</ele>
        <time>2017-11-20T13:17:37.999Z</time>
      </trkpt>
      <trkpt lat="49.46486" lon="3.69583">
        <ele>104.14</ele>
        <time>2017-11-20T13:17:47.999Z</time>
      </trkpt>
      <trkpt lat="49.4648" lon="3.69598">
        <ele>104.91</ele>
        <time>2017-11-20T13:17:57.999Z</time>
      </trkpt>
      <trkpt lat="49.46476" lon="3.69613">
        <ele>104.71</ele>
        <time>2017-11-20T13:18:07.999Z</time>
      </trkpt>
      <trkpt lat="49.46471" lon="3.69634">
        <ele>104.92</ele>
        <time>2017-11-20T13:18:17.999Z</time>
      </trkpt>
      <trkpt lat="49.46471" lon="3.69655">
        <ele>104.83</ele>
        <time>2017-11-20T13:18:27.999Z</time>
      </trkpt>
      <trkpt lat="49.46463" lon="3.69662">
        <ele>104.15</ele>
        <time>2017-11-20T13:18:37.999Z</time>
      </trkpt>
      <trkpt lat="49.46455" lon="3.69661">
        <ele>103.04</ele>
        <time>2017-11-20T13:18:47.999Z</time>
      </trkpt>
      <trkpt lat="49.46441" lon="3.69657">
        <ele>102.32</ele>
        <time>2017-11-20T13:18:57.999Z</time>
      </trkpt>
      <trkpt lat="49.46428" lon="3.6966">
        <ele>101.72</ele>
        <time>2017-11-20T13:19:07.999Z</time>
      </trkpt>
      <trkpt lat="49.46418" lon="3.69655">
        <ele>101.69</ele>
        <time>2017-11-20T13:19:17.999Z</time>
      </trkpt>
      <trkpt lat="49.46406" lon="3.69649">
        <ele>101.39</ele>
        <time>2017-11-20T13:19:27.999Z</time>
      </trkpt>
      <trkpt lat="49.46386" lon="3.69654">
        <ele>101.64</ele>
        <time>2017-11-20T13:19:37.999Z</time>
      </trkpt>
      <trkpt lat="49.46374" lon="3.69655">
        <ele>102.93</ele>
        <time>2017-11-20T13:19:47.999Z</time>
      </trkpt>
      <trkpt lat="49.46358" lon="3.69656">
        <ele>102.49</ele>
        <time>2017-11-20T13:19:57.999Z</time>
      </trkpt>
      <trkpt lat="49.46351" lon="3.69651">
        <ele>101.98</ele>
        <time>2017-11-20T13:20:07.999Z</time>
      </trkpt>
      <trkpt lat="49.46349" lon="3.6965">
        <ele>101.72</ele>
        <time>2017-11-20T13:20:17.999Z</time>
      </trkpt>
      <trkpt lat="49.46345" lon="3.69651">
        <ele>101.42</ele>
        <time>2017-11-20T13:20:27.999Z</time>
      </trkpt>
      <trkpt lat="49.46334" lon="3.69654">
        <ele>101.66</ele>
        <time>2017-11-20T13:20:37.999Z</time>
      </trkpt>
      <trkpt lat="49.46324" lon="3.69652">
        <ele>101.05</ele>
        <time>2017-11-20T13:20:47.999Z</time>
      </trkpt>
      <trkpt lat="49.46312" lon="3.69655">
        <ele>100.5</ele>
        <time>2017-11-20T13:20:57.999Z</time>
      </trkpt>
      <trkpt lat="49.463" lon="3.69661">
        <ele>100.46</ele>
        <time>2017-11-20T13:21:07.999Z</time>
      </trkpt>
      <trkpt lat="49.46292" lon="3.69662">
        <ele>99.64</ele>
        <time>2017-11-20T13:21:17.999Z</time>
      </trkpt>
      <trkpt lat="49.46278" lon="3.69659">
        <ele>98.57</ele>
        <time>2017-11-20T13:21:27.999Z</time>
      </trkpt>
      <trkpt lat="49.46264" lon="3.6966">
        <ele>97.27</ele>
        <time>2017-11-20T13:21:37.999Z</time>
      </trkpt>
      <trkpt lat="49.46257" lon="3.69664">
        <ele>95.79</ele>
        <time>2017-11-20T13:21:47.999Z</time>
      </trkpt>
      <trkpt lat="49.46241" lon="3.69666">
        <ele>94.4</ele>
        <time>2017-11-20T13:21:57.999Z</time>
      </trkpt>
      <trkpt lat="49.46231" lon="3.69667">
        <ele>94.19</ele>
        <time>2017-11-20T13:22:07.999Z</time>
      </trkpt>
      <trkpt lat="49.46222" lon="3.6967">
        <ele>93.56</ele>
        <time>2017-11-20T13:22:17.999Z</time>
      </trkpt>
      <trkpt lat="49.46199" lon="3.69673">
        <ele>94.06</ele>
        <time>2017-11-20T13:22:27.999Z</time>
      </trkpt>
      <trkpt lat="49.46189" lon="3.69672">
        <ele>95.28</ele>
        <time>2017-11-20T13:22:37.999Z</time>
      </trkpt>
      <trkpt lat="49.46175" lon="3.69672">
        <ele>96.55</ele>
        <time>2017-11-20T13:22:47.999Z</time>
      </trkpt>
      <trkpt lat="49.46168" lon="3.69672">
        <ele>96.77</ele>
        <time>2017-11-20T13:22:57.999Z</time>
      </trkpt>
      <trkpt lat="49.46154" lon="3.69671">
        <ele>96.31</ele>
        <time>2017-11-20T13:23:07.999Z</time>
      </trkpt>
      <trkpt lat="49.46146" lon="3.69674">
        <ele>95.74</ele>
        <time>2017-11-20T13:23:17.999Z</time>
      </trkpt>
      <trkpt lat="49.46135" lon="3.69677">
        <ele>95.94</ele>
        <time>2017-11-20T13:23:27.999Z</time>
      </trkpt>
      <trkpt lat="49.46119" lon="3.69679">
        <ele>96.71</ele>
        <time>2017-11-20T13:23:37.999Z</time>
      </trkpt>
      <trkpt lat="49.4611" lon="3.69682">
        <ele>97.75</ele>
        <time>2017-11-20T13:23:47.999Z</time>
      </trkpt>
      <trkpt lat="49.46107" lon="3.69678">
        <ele>97.66</ele>
        <time>2017-11-20T13:23:57.999Z</time>
      </trkpt>
      <trkpt lat="49.46094" lon="3.6968">
        <ele>96.8</ele>
        <time>2017-11-20T13:24:07.999Z</time>
      </trkpt>
      <trkpt lat="49.46083" lon="3.69682">
        <ele>96.17</ele>
        <time>2017-11-20T13:24:17.999Z</time>
      </trkpt>
      <trkpt lat="49.4607" lon="3.69686">
        <ele>96.31</ele>
        <time>2017-11-20T13:24:27.999Z</time>
      </trkpt>
      <trkpt lat="49.46064" lon="3.69684">
        <ele>96.26</ele>
        <time>2017-11-20T13:24:37.999Z</time>
      </trkpt>
      <trkpt lat="49.46058" lon="3.69682">
        <ele>95.86</ele>
        <time>2017-11-20T13:24:47.999Z</time>
      </trkpt>
      <trkpt lat="49.46056" lon="3.69681">
        <ele>95.52</ele>
        <time>2017-11-20T13:24:59.999Z</time>
      </trkpt>
      <trkpt lat="49.46044" lon="3.69676">
        <ele>94.94</ele>
        <time>2017-11-20T13:25:09.999Z</time>
      </trkpt>
      <trkpt lat="49.46033" lon="3.69667">
        <ele>94.52</ele>
        <time>2017-11-20T13:25:19.999Z</time>
      </trkpt>
      <trkpt lat="49.46025" lon="3.69663">
        <ele>94.53</ele>
        <time>2017-11-20T13:25:29.999Z</time>
      </trkpt>
      <trkpt lat="49.46015" lon="3.69658">
        <ele>95.03</ele>
        <time>2017-11-20T13:25:39.999Z</time>
      </trkpt>
      <trkpt lat="49.46004" lon="3.69649">
        <ele>95.77</ele>
        <time>2017-11-20T13:25:49.999Z</time>
      </trkpt>
      <trkpt lat="49.45992" lon="3.69642">
        <ele>97.11</ele>
        <time>2017-11-20T13:25:59.999Z</time>
      </trkpt>
      <trkpt lat="49.45979" lon="3.69626">
        <ele>98.57</ele>
        <time>2017-11-20T13:26:09.999Z</time>
      </trkpt>
      <trkpt lat="49.4597" lon="3.69612">
        <ele>99.81</ele>
        <time>2017-11-20T13:26:19.999Z</time>
      </trkpt>
      <trkpt lat="49.45961" lon="3.69591">
        <ele>100.21</ele>
        <time>2017-11-20T13:26:29.999Z</time>
      </trkpt>
      <trkpt lat="49.45952" lon="3.69582">
        <ele>100.45</ele>
        <time>2017-11-20T13:26:39.999Z</time>
      </trkpt>
      <trkpt lat="49.45942" lon="3.69572">
        <ele>100.92</ele>
        <time>2017-11-20T13:26:49.999Z</time>
      </trkpt>
      <trkpt lat="49.45926" lon="3.6956">
        <ele>101.78</ele>
        <time>2017-11-20T13:26:59.999Z</time>
      </trkpt>
      <trkpt lat="49.45916" lon="3.69552">
        <ele>102.6</ele>
        <time>2017-11-20T13:27:09.999Z</time>
      </trkpt>
      <trkpt lat="49.45909" lon="3.69544">
        <ele>102.18</ele>
        <time>2017-11-20T13:27:19.999Z</time>
      </trkpt>
      <trkpt lat="49.45898" lon="3.69539">
        <ele>101.5</ele>
        <time>2017-11-20T13:27:29.999Z</time>
      </trkpt>
      <trkpt lat="49.45889" lon="3.69534">
        <ele>101.12</ele>
        <time>2017-11-20T13:27:39.999Z</time>
      </trkpt>
      <trkpt lat="49.45878" lon="3.69526">
        <ele>101.12</ele>
        <time>2017-11-20T13:27:49.999Z</time>
      </trkpt>
      <trkpt lat="49.45864" lon="3.69513">
        <ele>101.34</ele>
        <time>2017-11-20T13:27:59.999Z</time>
      </trkpt>
      <trkpt lat="49.45854" lon="3.69505">
        <ele>100.97</ele>
        <time>2017-11-20T13:28:09.999Z</time>
      </trkpt>
      <trkpt lat="49.45842" lon="3.69501">
        <ele>99.91</ele>
        <time>2017-11-20T13:28:19.999Z</time>
      </trkpt>
      <trkpt lat="49.4583" lon="3.69496">
        <ele>99.11</ele>
        <time>2017-11-20T13:28:29.999Z</time>
      </trkpt>
      <trkpt lat="49.45819" lon="3.69489">
        <ele>98.85</ele>
        <time>2017-11-20T13:28:39.999Z</time>
      </trkpt>
      <trkpt lat="49.45811" lon="3.69482">
        <ele>98.85</ele>
        <time>2017-11-20T13:28:49.999Z</time>
      </trkpt>
      <trkpt lat="49.45799" lon="3.69473">
        <ele>99.04</ele>
        <time>2017-11-20T13:28:59.999Z</time>
      </trkpt>
      <trkpt lat="49.4579" lon="3.69469">
        <ele>98.98</ele>
        <time>2017-11-20T13:29:09.999Z</time>
      </trkpt>
      <trkpt lat="49.45781" lon="3.69456">
        <ele>99.11</ele>
        <time>2017-11-20T13:29:19.999Z</time>
      </trkpt>
      <trkpt lat="49.45773" lon="3.69439">
        <ele>99.25</ele>
        <time>2017-11-20T13:29:29.999Z</time>
      </trkpt>
      <trkpt lat="49.45769" lon="3.69421">
        <ele>99.4</ele>
        <time>2017-11-20T13:29:39.999Z</time>
      </trkpt>
      <trkpt lat="49.45763" lon="3.69406">
        <ele>99.51</ele>
        <time>2017-11-20T13:29:49.999Z</time>
      </trkpt>
      <trkpt lat="49.4576" lon="3.6939">
        <ele>99.31</ele>
        <time>2017-11-20T13:29:59.999Z</time>
      </trkpt>
      <trkpt lat="49.45761" lon="3.69369">
        <ele>98.74</ele>
        <time>2017-11-20T13:30:09.999Z</time>
      </trkpt>
      <trkpt lat="49.45766" lon="3.6935">
        <ele>97.72</ele>
        <time>2017-11-20T13:30:19.999Z</time>
      </trkpt>
      <trkpt lat="49.45769" lon="3.69337">
        <ele>97.15</ele>
        <time>2017-11-20T13:30:29.999Z</time>
      </trkpt>
      <trkpt lat="49.45774" lon="3.69316">
        <ele>96.55</ele>
        <time>2017-11-20T13:30:39.999Z</time>
      </trkpt>
      <trkpt lat="49.45779" lon="3.69301">
        <ele>96.42</ele>
        <time>2017-11-20T13:30:49.999Z</time>
      </trkpt>
      <trkpt lat="49.45785" lon="3.69287">
        <ele>95.56</ele>
        <time>2017-11-20T13:30:59.999Z</time>
      </trkpt>
      <trkpt lat="49.45791" lon="3.6927">
        <ele>93.99</ele>
        <time>2017-11-20T13:31:09.999Z</time>
      </trkpt>
      <trkpt lat="49.45795" lon="3.69252">
        <ele>92.01</ele>
        <time>2017-11-20T13:31:19.999Z</time>
      </trkpt>
      <trkpt lat="49.45798" lon="3.69241">
        <ele>89.87</ele>
        <time>2017-11-20T13:31:29.999Z</time>
      </trkpt>
      <trkpt lat="49.45802" lon="3.69221">
        <ele>87.61</ele>
        <time>2017-11-20T13:31:39.999Z</time>
      </trkpt>
      <trkpt lat="49.45809" lon="3.69201">
        <ele>86.62</ele>
        <time>2017-11-20T13:31:49.999Z</time>
      </trkpt>
      <trkpt lat="49.45816" lon="3.69186">
        <ele>86.5</ele>
        <time>2017-11-20T13:31:59.999Z</time>
      </trkpt>
      <trkpt lat="49.45818" lon="3.69173">
        <ele>87.2</ele>
        <time>2017-11-20T13:32:09.999Z</time>
      </trkpt>
      <trkpt lat="49.45819" lon="3.69151">
        <ele>88.04</ele>
        <time>2017-11-20T13:32:19.999Z</time>
      </trkpt>
      <trkpt lat="49.45818" lon="3.69139">
        <ele>88.33</ele>
        <time>2017-11-20T13:32:29.999Z</time>
      </trkpt>
      <trkpt lat="49.45817" lon="3.69126">
        <ele>88.25</ele>
        <time>2017-11-20T13:32:39.999Z</time>
      </trkpt>
      <trkpt lat="49.45815" lon="3.69102">
        <ele>88.06</ele>
        <time>2017-11-20T13:32:49.999Z</time>
      </trkpt>
      <trkpt lat="49.45814" lon="3.69079">
        <ele>87.96</ele>
        <time>2017-11-20T13:32:59.999Z</time>
      </trkpt>
      <trkpt lat="49.45813" lon="3.69056">
        <ele>87.49</ele>
        <time>2017-11-20T13:33:09.999Z</time>
      </trkpt>
      <trkpt lat="49.45813" lon="3.6905">
        <ele>87</ele>
        <time>2017-11-20T13:33:19.999Z</time>
      </trkpt>
      <trkpt lat="49.45812" lon="3.69041">
        <ele>85.89</ele>
        <time>2017-11-20T13:33:29.999Z</time>
      </trkpt>
      <trkpt lat="49.45814" lon="3.69026">
        <ele>83.78</ele>
        <time>2017-11-20T13:33:39.999Z</time>
      </trkpt>
      <trkpt lat="49.45814" lon="3.69012">
        <ele>82.27</ele>
        <time>2017-11-20T13:33:49.999Z</time>
      </trkpt>
      <trkpt lat="49.45817" lon="3.69002">
        <ele>81.09</ele>
        <time>2017-11-20T13:33:59.999Z</time>
      </trkpt>
      <trkpt lat="49.45821" lon="3.68984">
        <ele>82.11</ele>
        <time>2017-11-20T13:34:09.999Z</time>
      </trkpt>
      <trkpt lat="49.45823" lon="3.68971">
        <ele>83.09</ele>
        <time>2017-11-20T13:34:19.999Z</time>
      </trkpt>
      <trkpt lat="49.45821" lon="3.6896">
        <ele>84.15</ele>
        <time>2017-11-20T13:34:29.999Z</time>
      </trkpt>
      <trkpt lat="49.45823" lon="3.68948">
        <ele>84.13</ele>
        <time>2017-11-20T13:34:39.999Z</time>
      </trkpt>
      <trkpt lat="49.45821" lon="3.6894">
        <ele>83.62</ele>
        <time>2017-11-20T13:34:49.999Z</time>
      </trkpt>
      <trkpt lat="49.4582" lon="3.68924">
        <ele>82.88</ele>
        <time>2017-11-20T13:34:59.999Z</time>
      </trkpt>
      <trkpt lat="49.4582" lon="3.68909">
        <ele>82.44</ele>
        <time>2017-11-20T13:35:09.999Z</time>
      </trkpt>
      <trkpt lat="49.45822" lon="3.68895">
        <ele>82.6</ele>
        <time>2017-11-20T13:35:19.999Z</time>
      </trkpt>
      <trkpt lat="49.45823" lon="3.68876">
        <ele>82.94</ele>
        <time>2017-11-20T13:35:29.999Z</time>
      </trkpt>
      <trkpt lat="49.45823" lon="3.6886">
        <ele>82.63</ele>
        <time>2017-11-20T13:35:39.999Z</time>
      </trkpt>
      <trkpt lat="49.45824" lon="3.68845">
        <ele>82.54</ele>
        <time>2017-11-20T13:35:49.999Z</time>
      </trkpt>
      <trkpt lat="49.45825" lon="3.6882">
        <ele>82.91</ele>
        <time>2017-11-20T13:35:59.999Z</time>
      </trkpt>
      <trkpt lat="49.45825" lon="3.68796">
        <ele>83.32</ele>
        <time>2017-11-20T13:36:09.999Z</time>
      </trkpt>
      <trkpt lat="49.45823" lon="3.68777">
        <ele>83.55</ele>
        <time>2017-11-20T13:36:19.999Z</time>
      </trkpt>
      <trkpt lat="49.45823" lon="3.68756">
        <ele>84.09</ele>
        <time>2017-11-20T13:36:29.999Z</time>
      </trkpt>
      <trkpt lat="49.45823" lon="3.68737">
        <ele>84.89</ele>
        <time>2017-11-20T13:36:39.999Z</time>
      </trkpt>
      <trkpt lat="49.45823" lon="3.68713">
        <ele>85.34</ele>
        <time>2017-11-20T13:36:49.999Z</time>
      </trkpt>
      <trkpt lat="49.45824" lon="3.68693">
        <ele>85.74</ele>
        <time>2017-11-20T13:36:59.999Z</time>
      </trkpt>
      <trkpt lat="49.45828" lon="3.68672">
        <ele>85.19</ele>
        <time>2017-11-20T13:37:09.999Z</time>
      </trkpt>
      <trkpt lat="49.45829" lon="3.68654">
        <ele>84.45</ele>
        <time>2017-11-20T13:37:19.999Z</time>
      </trkpt>
      <trkpt lat="49.45829" lon="3.68632">
        <ele>84.1</ele>
        <time>2017-11-20T13:37:29.999Z</time>
      </trkpt>
      <trkpt lat="49.45831" lon="3.68605">
        <ele>83.76</ele>
        <time>2017-11-20T13:37:39.999Z</time>
      </trkpt>
      <trkpt lat="49.45832" lon="3.68588">
        <ele>83.92</ele>
        <time>2017-11-20T13:37:49.999Z</time>
      </trkpt>
      <trkpt lat="49.45832" lon="3.6857">
        <ele>83.49</ele>
        <time>2017-11-20T13:37:59.999Z</time>
      </trkpt>
      <trkpt lat="49.45834" lon="3.68556">
        <ele>82.39</ele>
        <time>2017-11-20T13:38:09.999Z</time>
      </trkpt>
      <trkpt lat="49.45838" lon="3.68539">
        <ele>80.67</ele>
        <time>2017-11-20T13:38:19.999Z</time>
      </trkpt>
      <trkpt lat="49.45839" lon="3.68517">
        <ele>79.32</ele>
        <time>2017-11-20T13:38:29.999Z</time>
      </trkpt>
      <trkpt lat="49.45842" lon="3.68488">
        <ele>78.81</ele>
        <time>2017-11-20T13:38:39.999Z</time>
      </trkpt>
      <trkpt lat="49.45844" lon="3.6847">
        <ele>78.61</ele>
        <time>2017-11-20T13:38:49.999Z</time>
      </trkpt>
      <trkpt lat="49.45843" lon="3.68446">
        <ele>78.38</ele>
        <time>2017-11-20T13:38:59.999Z</time>
      </trkpt>
      <trkpt lat="49.45848" lon="3.68433">
        <ele>78.49</ele>
        <time>2017-11-20T13:39:09.999Z</time>
      </trkpt>
      <trkpt lat="49.45848" lon="3.68411">
        <ele>79.33</ele>
        <time>2017-11-20T13:39:19.999Z</time>
      </trkpt>
      <trkpt lat="49.45845" lon="3.6839">
        <ele>80.91</ele>
        <time>2017-11-20T13:39:29.999Z</time>
      </trkpt>
      <trkpt lat="49.45844" lon="3.68369">
        <ele>82.17</ele>
        <time>2017-11-20T13:39:39.000Z</time>
      </trkpt>
      <trkpt lat="49.45839" lon="3.68352">
        <ele>83.35</ele>
        <time>2017-11-20T13:39:49.000Z</time>
      </trkpt>
      <trkpt lat="49.45836" lon="3.68337">
        <ele>85.4</ele>
        <time>2017-11-20T13:39:59.000Z</time>
      </trkpt>
      <trkpt lat="49.45828" lon="3.68318">
        <ele>87.41</ele>
        <time>2017-11-20T13:40:09.000Z</time>
      </trkpt>
      <trkpt lat="49.45823" lon="3.68303">
        <ele>89.17</ele>
        <time>2017-11-20T13:40:19.000Z</time>
      </trkpt>
      <trkpt lat="49.45809" lon="3.68287">
        <ele>90.28</ele>
        <time>2017-11-20T13:40:29.000Z</time>
      </trkpt>
      <trkpt lat="49.458" lon="3.68277">
        <ele>91.61</ele>
        <time>2017-11-20T13:40:39.000Z</time>
      </trkpt>
      <trkpt lat="49.4579" lon="3.68263">
        <ele>93.36</ele>
        <time>2017-11-20T13:40:49.000Z</time>
      </trkpt>
      <trkpt lat="49.45784" lon="3.68253">
        <ele>94.95</ele>
        <time>2017-11-20T13:40:59.000Z</time>
      </trkpt>
      <trkpt lat="49.4577" lon="3.68237">
        <ele>95.58</ele>
        <time>2017-11-20T13:41:09.000Z</time>
      </trkpt>
      <trkpt lat="49.4576" lon="3.68226">
        <ele>96.02</ele>
        <time>2017-11-20T13:41:19.000Z</time>
      </trkpt>
      <trkpt lat="49.45751" lon="3.68217">
        <ele>96.39</ele>
        <time>2017-11-20T13:41:29.000Z</time>
      </trkpt>
      <trkpt lat="49.45739" lon="3.68211">
        <ele>97.11</ele>
        <time>2017-11-20T13:41:39.000Z</time>
      </trkpt>
      <trkpt lat="49.45726" lon="3.68203">
        <ele>98.02</ele>
        <time>2017-11-20T13:41:49.000Z</time>
      </trkpt>
      <trkpt lat="49.45718" lon="3.68199">
        <ele>98.46</ele>
        <time>2017-11-20T13:41:59.000Z</time>
      </trkpt>
      <trkpt lat="49.45707" lon="3.68188">
        <ele>98.62</ele>
        <time>2017-11-20T13:42:09.000Z</time>
      </trkpt>
      <trkpt lat="49.45696" lon="3.68178">
        <ele>98.3</ele>
        <time>2017-11-20T13:42:19.000Z</time>
      </trkpt>
      <trkpt lat="49.4569" lon="3.68168">
        <ele>98.5</ele>
        <time>2017-11-20T13:42:29.000Z</time>
      </trkpt>
      <trkpt lat="49.45677" lon="3.68153">
        <ele>98.53</ele>
        <time>2017-11-20T13:42:39.000Z</time>
      </trkpt>
      <trkpt lat="49.45671" lon="3.68137">
        <ele>98.81</ele>
        <time>2017-11-20T13:42:49.000Z</time>
      </trkpt>
      <trkpt lat="49.45663" lon="3.68123">
        <ele>98.94</ele>
        <time>2017-11-20T13:42:59.000Z</time>
      </trkpt>
      <trkpt lat="49.4566" lon="3.68112">
        <ele>99.24</ele>
        <time>2017-11-20T13:43:09.000Z</time>
      </trkpt>
      <trkpt lat="49.45658" lon="3.68098">
        <ele>98.9</ele>
        <time>2017-11-20T13:43:19.000Z</time>
      </trkpt>
      <trkpt lat="49.45654" lon="3.68079">
        <ele>97.98</ele>
        <time>2017-11-20T13:43:29.000Z</time>
      </trkpt>
      <trkpt lat="49.45648" lon="3.6806">
        <ele>97.22</ele>
        <time>2017-11-20T13:43:39.000Z</time>
      </trkpt>
      <trkpt lat="49.45641" lon="3.68038">
        <ele>96.95</ele>
        <time>2017-11-20T13:43:49.000Z</time>
      </trkpt>
      <trkpt lat="49.45638" lon="3.68018">
        <ele>96.63</ele>
        <time>2017-11-20T13:43:59.000Z</time>
      </trkpt>
      <trkpt lat="49.45635" lon="3.68">
        <ele>96.39</ele>
        <time>2017-11-20T13:44:09.000Z</time>
      </trkpt>
      <trkpt lat="49.45635" lon="3.67995">
        <ele>96.25</ele>
        <time>2017-11-20T13:44:19.000Z</time>
      </trkpt>
      <trkpt lat="49.45636" lon="3.67993">
        <ele>96.13</ele>
        <time>2017-11-20T13:44:29.000Z</time>
      </trkpt>
      <trkpt lat="49.4564" lon="3.67992">
        <ele>96.28</ele>
        <time>2017-11-20T13:44:39.000Z</time>
      </trkpt>
      <trkpt lat="49.45641" lon="3.6799">
        <ele>98.28</ele>
        <time>2017-11-20T13:44:49.000Z</time>
      </trkpt>
      <trkpt lat="49.45641" lon="3.67992">
        <ele>100.21</ele>
        <time>2017-11-20T13:45:11.000Z</time>
      </trkpt>
      <trkpt lat="49.45641" lon="3.6799">
        <ele>101.25</ele>
        <time>2017-11-20T13:45:21.000Z</time>
      </trkpt>
      <trkpt lat="49.45641" lon="3.67987">
        <ele>102.14</ele>
        <time>2017-11-20T13:45:31.000Z</time>
      </trkpt>
      <trkpt lat="49.4564" lon="3.67987">
        <ele>102.62</ele>
        <time>2017-11-20T13:45:41.000Z</time>
      </trkpt>
      <trkpt lat="49.4564" lon="3.67984">
        <ele>103.18</ele>
        <time>2017-11-20T13:45:51.000Z</time>
      </trkpt>
      <trkpt lat="49.4564" lon="3.6798">
        <ele>103.55</ele>
        <time>2017-11-20T13:46:01.000Z</time>
      </trkpt>
      <trkpt lat="49.4564" lon="3.67981">
        <ele>104.25</ele>
        <time>2017-11-20T13:46:16.000Z</time>
      </trkpt>
      <trkpt lat="49.45641" lon="3.67984">
        <ele>104.76</ele>
        <time>2017-11-20T13:46:26.000Z</time>
      </trkpt>
      <trkpt lat="49.45643" lon="3.67983">
        <ele>104.96</ele>
        <time>2017-11-20T13:46:45.000Z</time>
      </trkpt>
      <trkpt lat="49.45644" lon="3.67976">
        <ele>105.65</ele>
        <time>2017-11-20T13:46:55.000Z</time>
      </trkpt>
      <trkpt lat="49.4564" lon="3.67959">
        <ele>106.35</ele>
        <time>2017-11-20T13:47:05.000Z</time>
      </trkpt>
      <trkpt lat="49.45637" lon="3.67942">
        <ele>107.13</ele>
        <time>2017-11-20T13:47:15.000Z</time>
      </trkpt>
      <trkpt lat="49.45631" lon="3.67923">
        <ele>108.03</ele>
        <time>2017-11-20T13:47:25.000Z</time>
      </trkpt>
      <trkpt lat="49.45627" lon="3.67904">
        <ele>109.59</ele>
        <time>2017-11-20T13:47:35.000Z</time>
      </trkpt>
      <trkpt lat="49.45622" lon="3.67892">
        <ele>111.08</ele>
        <time>2017-11-20T13:47:45.000Z</time>
      </trkpt>
      <trkpt lat="49.45616" lon="3.67875">
        <ele>112.54</ele>
        <time>2017-11-20T13:47:55.000Z</time>
      </trkpt>
      <trkpt lat="49.4561" lon="3.67863">
        <ele>113.45</ele>
        <time>2017-11-20T13:48:05.000Z</time>
      </trkpt>
      <trkpt lat="49.45602" lon="3.67848">
        <ele>113.97</ele>
        <time>2017-11-20T13:48:15.000Z</time>
      </trkpt>
      <trkpt lat="49.45594" lon="3.67832">
        <ele>114.29</ele>
        <time>2017-11-20T13:48:25.000Z</time>
      </trkpt>
      <trkpt lat="49.45584" lon="3.67815">
        <ele>113.94</ele>
        <time>2017-11-20T13:48:35.000Z</time>
      </trkpt>
      <trkpt lat="49.45576" lon="3.67806">
        <ele>113.3</ele>
        <time>2017-11-20T13:48:45.000Z</time>
      </trkpt>
      <trkpt lat="49.45568" lon="3.67797">
        <ele>112.71</ele>
        <time>2017-11-20T13:48:55.000Z</time>
      </trkpt>
      <trkpt lat="49.45558" lon="3.67789">
        <ele>112.49</ele>
        <time>2017-11-20T13:49:05.000Z</time>
      </trkpt>
      <trkpt lat="49.45548" lon="3.67779">
        <ele>112.53</ele>
        <time>2017-11-20T13:49:15.000Z</time>
      </trkpt>
      <trkpt lat="49.45537" lon="3.67769">
        <ele>112.01</ele>
        <time>2017-11-20T13:49:25.000Z</time>
      </trkpt>
      <trkpt lat="49.45527" lon="3.67761">
        <ele>111.52</ele>
        <time>2017-11-20T13:49:35.000Z</time>
      </trkpt>
      <trkpt lat="49.45517" lon="3.67752">
        <ele>111</ele>
        <time>2017-11-20T13:49:45.000Z</time>
      </trkpt>
      <trkpt lat="49.45505" lon="3.67742">
        <ele>110.57</ele>
        <time>2017-11-20T13:49:55.000Z</time>
      </trkpt>
      <trkpt lat="49.45491" lon="3.67731">
        <ele>110.4</ele>
        <time>2017-11-20T13:50:05.000Z</time>
      </trkpt>
      <trkpt lat="49.4548" lon="3.6772">
        <ele>110.03</ele>
        <time>2017-11-20T13:50:15.000Z</time>
      </trkpt>
      <trkpt lat="49.45471" lon="3.67712">
        <ele>110.27</ele>
        <time>2017-11-20T13:50:25.000Z</time>
      </trkpt>
      <trkpt lat="49.45461" lon="3.67702">
        <ele>110.72</ele>
        <time>2017-11-20T13:50:35.000Z</time>
      </trkpt>
      <trkpt lat="49.45449" lon="3.6769">
        <ele>111.12</ele>
        <time>2017-11-20T13:50:45.000Z</time>
      </trkpt>
      <trkpt lat="49.45439" lon="3.67681">
        <ele>110.98</ele>
        <time>2017-11-20T13:50:55.000Z</time>
      </trkpt>
      <trkpt lat="49.4543" lon="3.67673">
        <ele>110.84</ele>
        <time>2017-11-20T13:51:05.000Z</time>
      </trkpt>
      <trkpt lat="49.45419" lon="3.67665">
        <ele>110.2</ele>
        <time>2017-11-20T13:51:15.000Z</time>
      </trkpt>
      <trkpt lat="49.45406" lon="3.67656">
        <ele>109.42</ele>
        <time>2017-11-20T13:51:25.000Z</time>
      </trkpt>
      <trkpt lat="49.45397" lon="3.67645">
        <ele>108.83</ele>
        <time>2017-11-20T13:51:35.000Z</time>
      </trkpt>
      <trkpt lat="49.45385" lon="3.6764">
        <ele>109.24</ele>
        <time>2017-11-20T13:51:45.000Z</time>
      </trkpt>
      <trkpt lat="49.45371" lon="3.67639">
        <ele>109.83</ele>
        <time>2017-11-20T13:51:55.000Z</time>
      </trkpt>
      <trkpt lat="49.45355" lon="3.67638">
        <ele>110.19</ele>
        <time>2017-11-20T13:52:05.000Z</time>
      </trkpt>
      <trkpt lat="49.45345" lon="3.67641">
        <ele>110.43</ele>
        <time>2017-11-20T13:52:15.000Z</time>
      </trkpt>
      <trkpt lat="49.45334" lon="3.6764">
        <ele>109.51</ele>
        <time>2017-11-20T13:52:25.000Z</time>
      </trkpt>
      <trkpt lat="49.45323" lon="3.67644">
        <ele>107.66</ele>
        <time>2017-11-20T13:52:35.000Z</time>
      </trkpt>
      <trkpt lat="49.45309" lon="3.6765">
        <ele>105.87</ele>
        <time>2017-11-20T13:52:45.000Z</time>
      </trkpt>
      <trkpt lat="49.45298" lon="3.67652">
        <ele>105.01</ele>
        <time>2017-11-20T13:52:55.000Z</time>
      </trkpt>
      <trkpt lat="49.45283" lon="3.67653">
        <ele>105.35</ele>
        <time>2017-11-20T13:53:05.000Z</time>
      </trkpt>
      <trkpt lat="49.45275" lon="3.67659">
        <ele>105.5</ele>
        <time>2017-11-20T13:53:15.000Z</time>
      </trkpt>
      <trkpt lat="49.45257" lon="3.67664">
        <ele>105.57</ele>
        <time>2017-11-20T13:53:25.000Z</time>
      </trkpt>
      <trkpt lat="49.45245" lon="3.67664">
        <ele>106.03</ele>
        <time>2017-11-20T13:53:35.000Z</time>
      </trkpt>
      <trkpt lat="49.45233" lon="3.67669">
        <ele>106.45</ele>
        <time>2017-11-20T13:53:45.000Z</time>
      </trkpt>
      <trkpt lat="49.4522" lon="3.67671">
        <ele>106.94</ele>
        <time>2017-11-20T13:53:55.000Z</time>
      </trkpt>
      <trkpt lat="49.45206" lon="3.67677">
        <ele>107.26</ele>
        <time>2017-11-20T13:54:05.000Z</time>
      </trkpt>
      <trkpt lat="49.45196" lon="3.6768">
        <ele>108.01</ele>
        <time>2017-11-20T13:54:15.000Z</time>
      </trkpt>
      <trkpt lat="49.45185" lon="3.67684">
        <ele>108.78</ele>
        <time>2017-11-20T13:54:25.000Z</time>
      </trkpt>
      <trkpt lat="49.45174" lon="3.67689">
        <ele>109.12</ele>
        <time>2017-11-20T13:54:35.000Z</time>
      </trkpt>
      <trkpt lat="49.45162" lon="3.67691">
        <ele>109.14</ele>
        <time>2017-11-20T13:54:45.000Z</time>
      </trkpt>
      <trkpt lat="49.45152" lon="3.67696">
        <ele>108.59</ele>
        <time>2017-11-20T13:54:55.000Z</time>
      </trkpt>
      <trkpt lat="49.45141" lon="3.677">
        <ele>107.4</ele>
        <time>2017-11-20T13:55:05.000Z</time>
      </trkpt>
      <trkpt lat="49.4513" lon="3.67699">
        <ele>105.97</ele>
        <time>2017-11-20T13:55:15.000Z</time>
      </trkpt>
      <trkpt lat="49.45119" lon="3.67701">
        <ele>105.36</ele>
        <time>2017-11-20T13:55:25.000Z</time>
      </trkpt>
      <trkpt lat="49.45106" lon="3.67702">
        <ele>104.75</ele>
        <time>2017-11-20T13:55:35.000Z</time>
      </trkpt>
      <trkpt lat="49.45095" lon="3.67703">
        <ele>103.87</ele>
        <time>2017-11-20T13:55:45.000Z</time>
      </trkpt>
      <trkpt lat="49.45079" lon="3.67706">
        <ele>102.88</ele>
        <time>2017-11-20T13:55:55.000Z</time>
      </trkpt>
      <trkpt lat="49.45064" lon="3.67706">
        <ele>102.41</ele>
        <time>2017-11-20T13:56:05.000Z</time>
      </trkpt>
      <trkpt lat="49.45051" lon="3.67713">
        <ele>103.03</ele>
        <time>2017-11-20T13:56:15.000Z</time>
      </trkpt>
      <trkpt lat="49.45039" lon="3.67715">
        <ele>104.3</ele>
        <time>2017-11-20T13:56:25.000Z</time>
      </trkpt>
      <trkpt lat="49.45027" lon="3.67715">
        <ele>105.17</ele>
        <time>2017-11-20T13:56:35.000Z</time>
      </trkpt>
      <trkpt lat="49.45018" lon="3.67713">
        <ele>106.12</ele>
        <time>2017-11-20T13:56:45.000Z</time>
      </trkpt>
      <trkpt lat="49.45007" lon="3.67714">
        <ele>106.77</ele>
        <time>2017-11-20T13:56:55.000Z</time>
      </trkpt>
      <trkpt lat="49.44996" lon="3.67716">
        <ele>107.5</ele>
        <time>2017-11-20T13:57:05.000Z</time>
      </trkpt>
      <trkpt lat="49.44979" lon="3.67718">
        <ele>107.72</ele>
        <time>2017-11-20T13:57:15.000Z</time>
      </trkpt>
      <trkpt lat="49.44961" lon="3.67719">
        <ele>107.92</ele>
        <time>2017-11-20T13:57:25.000Z</time>
      </trkpt>
      <trkpt lat="49.44955" lon="3.6772">
        <ele>108.34</ele>
        <time>2017-11-20T13:57:35.000Z</time>
      </trkpt>
      <trkpt lat="49.44945" lon="3.67723">
        <ele>108.78</ele>
        <time>2017-11-20T13:57:45.000Z</time>
      </trkpt>
      <trkpt lat="49.44934" lon="3.67726">
        <ele>109.4</ele>
        <time>2017-11-20T13:57:55.000Z</time>
      </trkpt>
      <trkpt lat="49.44922" lon="3.67728">
        <ele>109.24</ele>
        <time>2017-11-20T13:58:05.000Z</time>
      </trkpt>
      <trkpt lat="49.4491" lon="3.67725">
        <ele>109.5</ele>
        <time>2017-11-20T13:58:15.000Z</time>
      </trkpt>
      <trkpt lat="49.44902" lon="3.67723">
        <ele>109.37</ele>
        <time>2017-11-20T13:58:25.000Z</time>
      </trkpt>
      <trkpt lat="49.44893" lon="3.67727">
        <ele>108.43</ele>
        <time>2017-11-20T13:58:35.000Z</time>
      </trkpt>
      <trkpt lat="49.44873" lon="3.6773">
        <ele>107.84</ele>
        <time>2017-11-20T13:58:45.000Z</time>
      </trkpt>
      <trkpt lat="49.44853" lon="3.67733">
        <ele>108.05</ele>
        <time>2017-11-20T13:58:55.000Z</time>
      </trkpt>
      <trkpt lat="49.44833" lon="3.67732">
        <ele>109.11</ele>
        <time>2017-11-20T13:59:05.000Z</time>
      </trkpt>
      <trkpt lat="49.44827" lon="3.67726">
        <ele>110.61</ele>
        <time>2017-11-20T13:59:15.000Z</time>
      </trkpt>
      <trkpt lat="49.44819" lon="3.67729">
        <ele>112.7</ele>
        <time>2017-11-20T13:59:25.000Z</time>
      </trkpt>
      <trkpt lat="49.44819" lon="3.67731">
        <ele>113.07</ele>
        <time>2017-11-20T13:59:35.000Z</time>
      </trkpt>
      <trkpt lat="49.44816" lon="3.67734">
        <ele>113.41</ele>
        <time>2017-11-20T13:59:45.000Z</time>
      </trkpt>
      <trkpt lat="49.44806" lon="3.6773">
        <ele>115.25</ele>
        <time>2017-11-20T13:59:55.000Z</time>
      </trkpt>
      <trkpt lat="49.44801" lon="3.67726">
        <ele>116.92</ele>
        <time>2017-11-20T14:00:05.000Z</time>
      </trkpt>
      <trkpt lat="49.44793" lon="3.67721">
        <ele>117.1</ele>
        <time>2017-11-20T14:00:15.000Z</time>
      </trkpt>
      <trkpt lat="49.44784" lon="3.6771">
        <ele>117.84</ele>
        <time>2017-11-20T14:00:25.000Z</time>
      </trkpt>
      <trkpt lat="49.44777" lon="3.67692">
        <ele>119.51</ele>
        <time>2017-11-20T14:00:35.000Z</time>
      </trkpt>
      <trkpt lat="49.4477" lon="3.67673">
        <ele>120.37</ele>
        <time>2017-11-20T14:00:45.000Z</time>
      </trkpt>
      <trkpt lat="49.44766" lon="3.67656">
        <ele>120.99</ele>
        <time>2017-11-20T14:00:55.000Z</time>
      </trkpt>
      <trkpt lat="49.44761" lon="3.67644">
        <ele>121.2</ele>
        <time>2017-11-20T14:01:05.000Z</time>
      </trkpt>
      <trkpt lat="49.4476" lon="3.67641">
        <ele>123.21</ele>
        <time>2017-11-20T14:02:32.999Z</time>
      </trkpt>
      <trkpt lat="49.44761" lon="3.67642">
        <ele>124.24</ele>
        <time>2017-11-20T14:02:42.999Z</time>
      </trkpt>
      <trkpt lat="49.4476" lon="3.6764">
        <ele>124.53</ele>
        <time>2017-11-20T14:02:58.999Z</time>
      </trkpt>
      <trkpt lat="49.44761" lon="3.67641">
        <ele>125.29</ele>
        <time>2017-11-20T14:03:09.999Z</time>
      </trkpt>
      <trkpt lat="49.44762" lon="3.67642">
        <ele>127.4</ele>
        <time>2017-11-20T14:04:07.999Z</time>
      </trkpt>
      <trkpt lat="49.44762" lon="3.67643">
        <ele>127.64</ele>
        <time>2017-11-20T14:04:19.999Z</time>
      </trkpt>
      <trkpt lat="49.44763" lon="3.67645">
        <ele>128.21</ele>
        <time>2017-11-20T14:04:29.999Z</time>
      </trkpt>
      <trkpt lat="49.44758" lon="3.6764">
        <ele>128.37</ele>
        <time>2017-11-20T14:04:39.999Z</time>
      </trkpt>
      <trkpt lat="49.44757" lon="3.67641">
        <ele>128.22</ele>
        <time>2017-11-20T14:04:51.999Z</time>
      </trkpt>
      <trkpt lat="49.44759" lon="3.6764">
        <ele>128.14</ele>
        <time>2017-11-20T14:05:01.999Z</time>
      </trkpt>
      <trkpt lat="49.44763" lon="3.67643">
        <ele>128.09</ele>
        <time>2017-11-20T14:05:11.999Z</time>
      </trkpt>
      <trkpt lat="49.44765" lon="3.67644">
        <ele>128.1</ele>
        <time>2017-11-20T14:05:21.999Z</time>
      </trkpt>
      <trkpt lat="49.44765" lon="3.67643">
        <ele>128.7</ele>
        <time>2017-11-20T14:05:36.999Z</time>
      </trkpt>
      <trkpt lat="49.44763" lon="3.67642">
        <ele>129.52</ele>
        <time>2017-11-20T14:05:46.999Z</time>
      </trkpt>
      <trkpt lat="49.44764" lon="3.67644">
        <ele>130.19</ele>
        <time>2017-11-20T14:05:56.999Z</time>
      </trkpt>
      <trkpt lat="49.44765" lon="3.67646">
        <ele>130.4</ele>
        <time>2017-11-20T14:06:06.999Z</time>
      </trkpt>
      <trkpt lat="49.44766" lon="3.67647">
        <ele>130.73</ele>
        <time>2017-11-20T14:06:16.999Z</time>
      </trkpt>
      <trkpt lat="49.44766" lon="3.67651">
        <ele>131.11</ele>
        <time>2017-11-20T14:06:26.999Z</time>
      </trkpt>
      <trkpt lat="49.44766" lon="3.67649">
        <ele>131.12</ele>
        <time>2017-11-20T14:06:46.999Z</time>
      </trkpt>
      <trkpt lat="49.44765" lon="3.67646">
        <ele>131.36</ele>
        <time>2017-11-20T14:06:56.999Z</time>
      </trkpt>
      <trkpt lat="49.44763" lon="3.67645">
        <ele>131.69</ele>
        <time>2017-11-20T14:07:21.999Z</time>
      </trkpt>
      <trkpt lat="49.44763" lon="3.67644">
        <ele>132.02</ele>
        <time>2017-11-20T14:07:32.999Z</time>
      </trkpt>
      <trkpt lat="49.44761" lon="3.67642">
        <ele>132.14</ele>
        <time>2017-11-20T14:07:42.999Z</time>
      </trkpt>
      <trkpt lat="49.44758" lon="3.67638">
        <ele>132.7</ele>
        <time>2017-11-20T14:07:52.999Z</time>
      </trkpt>
      <trkpt lat="49.44759" lon="3.67639">
        <ele>132.86</ele>
        <time>2017-11-20T14:08:20.999Z</time>
      </trkpt>
      <trkpt lat="49.44759" lon="3.6764">
        <ele>132.94</ele>
        <time>2017-11-20T14:08:38.999Z</time>
      </trkpt>
      <trkpt lat="49.4476" lon="3.6764">
        <ele>133.23</ele>
        <time>2017-11-20T14:08:49.999Z</time>
      </trkpt>
      <trkpt lat="49.44762" lon="3.67639">
        <ele>133.44</ele>
        <time>2017-11-20T14:09:10.999Z</time>
      </trkpt>
      <trkpt lat="49.44762" lon="3.6764">
        <ele>133.61</ele>
        <time>2017-11-20T14:09:28.999Z</time>
      </trkpt>
      <trkpt lat="49.44762" lon="3.67641">
        <ele>133.63</ele>
        <time>2017-11-20T14:09:38.999Z</time>
      </trkpt>
      <trkpt lat="49.44762" lon="3.6764">
        <ele>133.38</ele>
        <time>2017-11-20T14:09:56.999Z</time>
      </trkpt>
      <trkpt lat="49.44761" lon="3.67641">
        <ele>133.21</ele>
        <time>2017-11-20T14:10:09.999Z</time>
      </trkpt>
      <trkpt lat="49.44761" lon="3.67643">
        <ele>133.13</ele>
        <time>2017-11-20T14:10:19.999Z</time>
      </trkpt>
      <trkpt lat="49.44762" lon="3.67644">
        <ele>132.95</ele>
        <time>2017-11-20T14:10:35.999Z</time>
      </trkpt>
      <trkpt lat="49.44761" lon="3.67645">
        <ele>132.74</ele>
        <time>2017-11-20T14:10:47.999Z</time>
      </trkpt>
      <trkpt lat="49.4476" lon="3.67642">
        <ele>132.13</ele>
        <time>2017-11-20T14:10:57.999Z</time>
      </trkpt>
      <trkpt lat="49.44761" lon="3.67645">
        <ele>130.22</ele>
        <time>2017-11-20T14:11:07.999Z</time>
      </trkpt>
      <trkpt lat="49.44762" lon="3.67643">
        <ele>128.6</ele>
        <time>2017-11-20T14:11:18.999Z</time>
      </trkpt>
      <trkpt lat="49.44766" lon="3.67634">
        <ele>126.46</ele>
        <time>2017-11-20T14:11:28.999Z</time>
      </trkpt>
      <trkpt lat="49.44771" lon="3.6762">
        <ele>124.13</ele>
        <time>2017-11-20T14:11:38.999Z</time>
      </trkpt>
      <trkpt lat="49.44777" lon="3.67604">
        <ele>121.79</ele>
        <time>2017-11-20T14:11:48.999Z</time>
      </trkpt>
      <trkpt lat="49.44783" lon="3.6759">
        <ele>119.49</ele>
        <time>2017-11-20T14:11:58.999Z</time>
      </trkpt>
      <trkpt lat="49.44786" lon="3.67576">
        <ele>117.96</ele>
        <time>2017-11-20T14:12:08.999Z</time>
      </trkpt>
      <trkpt lat="49.44798" lon="3.67556">
        <ele>116.91</ele>
        <time>2017-11-20T14:12:18.999Z</time>
      </trkpt>
      <trkpt lat="49.44804" lon="3.67539">
        <ele>116.51</ele>
        <time>2017-11-20T14:12:28.999Z</time>
      </trkpt>
      <trkpt lat="49.44813" lon="3.67525">
        <ele>115.52</ele>
        <time>2017-11-20T14:12:38.999Z</time>
      </trkpt>
      <trkpt lat="49.44822" lon="3.67512">
        <ele>114.72</ele>
        <time>2017-11-20T14:12:48.999Z</time>
      </trkpt>
      <trkpt lat="49.44827" lon="3.67497">
        <ele>114.29</ele>
        <time>2017-11-20T14:12:58.999Z</time>
      </trkpt>
      <trkpt lat="49.44834" lon="3.67477">
        <ele>114.31</ele>
        <time>2017-11-20T14:13:08.999Z</time>
      </trkpt>
      <trkpt lat="49.44838" lon="3.67465">
        <ele>114.58</ele>
        <time>2017-11-20T14:13:18.999Z</time>
      </trkpt>
      <trkpt lat="49.4484" lon="3.67453">
        <ele>115.16</ele>
        <time>2017-11-20T14:13:28.999Z</time>
      </trkpt>
      <trkpt lat="49.4484" lon="3.67435">
        <ele>116.2</ele>
        <time>2017-11-20T14:13:38.999Z</time>
      </trkpt>
      <trkpt lat="49.44838" lon="3.67416">
        <ele>116.77</ele>
        <time>2017-11-20T14:13:48.999Z</time>
      </trkpt>
      <trkpt lat="49.44837" lon="3.67398">
        <ele>116.46</ele>
        <time>2017-11-20T14:13:58.999Z</time>
      </trkpt>
      <trkpt lat="49.44835" lon="3.67379">
        <ele>115.79</ele>
        <time>2017-11-20T14:14:08.999Z</time>
      </trkpt>
      <trkpt lat="49.44834" lon="3.6736">
        <ele>114.54</ele>
        <time>2017-11-20T14:14:18.999Z</time>
      </trkpt>
      <trkpt lat="49.44832" lon="3.67342">
        <ele>113.07</ele>
        <time>2017-11-20T14:14:28.999Z</time>
      </trkpt>
      <trkpt lat="49.44832" lon="3.67321">
        <ele>111.92</ele>
        <time>2017-11-20T14:14:38.999Z</time>
      </trkpt>
      <trkpt lat="49.44832" lon="3.67307">
        <ele>111.32</ele>
        <time>2017-11-20T14:14:48.999Z</time>
      </trkpt>
      <trkpt lat="49.44833" lon="3.67291">
        <ele>111.13</ele>
        <time>2017-11-20T14:14:58.999Z</time>
      </trkpt>
      <trkpt lat="49.44835" lon="3.67281">
        <ele>110.96</ele>
        <time>2017-11-20T14:15:08.999Z</time>
      </trkpt>
      <trkpt lat="49.44838" lon="3.67269">
        <ele>110.86</ele>
        <time>2017-11-20T14:15:18.999Z</time>
      </trkpt>
      <trkpt lat="49.44846" lon="3.67262">
        <ele>111.4</ele>
        <time>2017-11-20T14:15:28.999Z</time>
      </trkpt>
      <trkpt lat="49.4486" lon="3.67254">
        <ele>111.95</ele>
        <time>2017-11-20T14:15:38.999Z</time>
      </trkpt>
      <trkpt lat="49.44873" lon="3.67248">
        <ele>112.33</ele>
        <time>2017-11-20T14:15:48.999Z</time>
      </trkpt>
      <trkpt lat="49.44881" lon="3.67244">
        <ele>112.72</ele>
        <time>2017-11-20T14:15:58.999Z</time>
      </trkpt>
      <trkpt lat="49.44896" lon="3.67237">
        <ele>112.51</ele>
        <time>2017-11-20T14:16:08.999Z</time>
      </trkpt>
      <trkpt lat="49.44911" lon="3.67233">
        <ele>111.65</ele>
        <time>2017-11-20T14:16:18.999Z</time>
      </trkpt>
      <trkpt lat="49.44932" lon="3.67224">
        <ele>111.27</ele>
        <time>2017-11-20T14:16:28.999Z</time>
      </trkpt>
      <trkpt lat="49.44941" lon="3.67219">
        <ele>111.29</ele>
        <time>2017-11-20T14:16:38.999Z</time>
      </trkpt>
      <trkpt lat="49.44945" lon="3.67214">
        <ele>111.29</ele>
        <time>2017-11-20T14:16:48.999Z</time>
      </trkpt>
      <trkpt lat="49.44951" lon="3.67201">
        <ele>111.63</ele>
        <time>2017-11-20T14:16:58.999Z</time>
      </trkpt>
      <trkpt lat="49.44958" lon="3.67195">
        <ele>112.59</ele>
        <time>2017-11-20T14:17:08.999Z</time>
      </trkpt>
      <trkpt lat="49.44965" lon="3.67184">
        <ele>113.41</ele>
        <time>2017-11-20T14:17:18.999Z</time>
      </trkpt>
      <trkpt lat="49.44978" lon="3.67176">
        <ele>112.97</ele>
        <time>2017-11-20T14:17:28.999Z</time>
      </trkpt>
      <trkpt lat="49.44995" lon="3.67167">
        <ele>112.65</ele>
        <time>2017-11-20T14:17:38.999Z</time>
      </trkpt>
      <trkpt lat="49.45017" lon="3.6715">
        <ele>112.82</ele>
        <time>2017-11-20T14:17:48.999Z</time>
      </trkpt>
      <trkpt lat="49.45026" lon="3.67138">
        <ele>111.8</ele>
        <time>2017-11-20T14:17:58.999Z</time>
      </trkpt>
      <trkpt lat="49.45033" lon="3.67129">
        <ele>110.38</ele>
        <time>2017-11-20T14:18:08.999Z</time>
      </trkpt>
      <trkpt lat="49.45039" lon="3.67122">
        <ele>109.44</ele>
        <time>2017-11-20T14:18:18.999Z</time>
      </trkpt>
      <trkpt lat="49.45045" lon="3.67115">
        <ele>108.65</ele>
        <time>2017-11-20T14:18:28.999Z</time>
      </trkpt>
      <trkpt lat="49.45056" lon="3.67104">
        <ele>107.54</ele>
        <time>2017-11-20T14:18:38.999Z</time>
      </trkpt>
      <trkpt lat="49.45061" lon="3.671">
        <ele>107.02</ele>
        <time>2017-11-20T14:18:48.999Z</time>
      </trkpt>
      <trkpt lat="49.45073" lon="3.67086">
        <ele>106.69</ele>
        <time>2017-11-20T14:18:58.999Z</time>
      </trkpt>
      <trkpt lat="49.45083" lon="3.67074">
        <ele>106.71</ele>
        <time>2017-11-20T14:19:08.999Z</time>
      </trkpt>
      <trkpt lat="49.45092" lon="3.67064">
        <ele>107.09</ele>
        <time>2017-11-20T14:19:18.999Z</time>
      </trkpt>
      <trkpt lat="49.45097" lon="3.67053">
        <ele>107.27</ele>
        <time>2017-11-20T14:19:28.999Z</time>
      </trkpt>
      <trkpt lat="49.451" lon="3.67042">
        <ele>107.25</ele>
        <time>2017-11-20T14:19:38.999Z</time>
      </trkpt>
      <trkpt lat="49.45105" lon="3.67028">
        <ele>107.87</ele>
        <time>2017-11-20T14:19:48.999Z</time>
      </trkpt>
      <trkpt lat="49.45113" lon="3.67017">
        <ele>108.92</ele>
        <time>2017-11-20T14:19:58.999Z</time>
      </trkpt>
      <trkpt lat="49.45119" lon="3.67008">
        <ele>110.04</ele>
        <time>2017-11-20T14:20:08.999Z</time>
      </trkpt>
      <trkpt lat="49.45125" lon="3.66997">
        <ele>111.25</ele>
        <time>2017-11-20T14:20:18.999Z</time>
      </trkpt>
      <trkpt lat="49.45134" lon="3.66984">
        <ele>112.4</ele>
        <time>2017-11-20T14:20:28.999Z</time>
      </trkpt>
      <trkpt lat="49.45146" lon="3.6697">
        <ele>113.3</ele>
        <time>2017-11-20T14:20:38.999Z</time>
      </trkpt>
      <trkpt lat="49.45152" lon="3.66964">
        <ele>113.33</ele>
        <time>2017-11-20T14:20:48.999Z</time>
      </trkpt>
      <trkpt lat="49.45158" lon="3.66961">
        <ele>113.74</ele>
        <time>2017-11-20T14:20:58.999Z</time>
      </trkpt>
      <trkpt lat="49.45178" lon="3.66947">
        <ele>114.25</ele>
        <time>2017-11-20T14:21:08.999Z</time>
      </trkpt>
      <trkpt lat="49.45193" lon="3.66941">
        <ele>114.83</ele>
        <time>2017-11-20T14:21:18.999Z</time>
      </trkpt>
      <trkpt lat="49.45198" lon="3.66938">
        <ele>115.84</ele>
        <time>2017-11-20T14:21:28.999Z</time>
      </trkpt>
      <trkpt lat="49.45203" lon="3.66933">
        <ele>116.54</ele>
        <time>2017-11-20T14:21:38.999Z</time>
      </trkpt>
      <trkpt lat="49.45214" lon="3.66923">
        <ele>116.78</ele>
        <time>2017-11-20T14:21:48.999Z</time>
      </trkpt>
      <trkpt lat="49.4522" lon="3.66915">
        <ele>117.71</ele>
        <time>2017-11-20T14:21:58.999Z</time>
      </trkpt>
      <trkpt lat="49.45225" lon="3.66918">
        <ele>118.35</ele>
        <time>2017-11-20T14:22:08.999Z</time>
      </trkpt>
      <trkpt lat="49.45227" lon="3.66917">
        <ele>119.83</ele>
        <time>2017-11-20T14:22:18.999Z</time>
      </trkpt>
      <trkpt lat="49.45226" lon="3.66916">
        <ele>121.45</ele>
        <time>2017-11-20T14:22:28.999Z</time>
      </trkpt>
      <trkpt lat="49.45224" lon="3.66917">
        <ele>122.43</ele>
        <time>2017-11-20T14:22:38.999Z</time>
      </trkpt>
      <trkpt lat="49.45226" lon="3.66914">
        <ele>122.87</ele>
        <time>2017-11-20T14:22:48.999Z</time>
      </trkpt>
      <trkpt lat="49.45227" lon="3.66914">
        <ele>124.69</ele>
        <time>2017-11-20T14:22:58.999Z</time>
      </trkpt>
      <trkpt lat="49.45227" lon="3.66916">
        <ele>126.74</ele>
        <time>2017-11-20T14:23:18.999Z</time>
      </trkpt>
      <trkpt lat="49.45225" lon="3.66914">
        <ele>127.58</ele>
        <time>2017-11-20T14:23:28.999Z</time>
      </trkpt>
      <trkpt lat="49.45226" lon="3.66916">
        <ele>127.99</ele>
        <time>2017-11-20T14:23:38.999Z</time>
      </trkpt>
      <trkpt lat="49.45227" lon="3.66915">
        <ele>128.38</ele>
        <time>2017-11-20T14:23:48.999Z</time>
      </trkpt>
      <trkpt lat="49.45232" lon="3.66915">
        <ele>129.79</ele>
        <time>2017-11-20T14:23:58.999Z</time>
      </trkpt>
      <trkpt lat="49.4524" lon="3.66913">
        <ele>130.5</ele>
        <time>2017-11-20T14:24:08.999Z</time>
      </trkpt>
      <trkpt lat="49.45241" lon="3.66913">
        <ele>130.63</ele>
        <time>2017-11-20T14:24:18.999Z</time>
      </trkpt>
      <trkpt lat="49.45243" lon="3.66912">
        <ele>130.93</ele>
        <time>2017-11-20T14:24:28.999Z</time>
      </trkpt>
      <trkpt lat="49.45257" lon="3.66901">
        <ele>130.88</ele>
        <time>2017-11-20T14:24:38.999Z</time>
      </trkpt>
      <trkpt lat="49.45273" lon="3.66891">
        <ele>131.12</ele>
        <time>2017-11-20T14:24:48.999Z</time>
      </trkpt>
      <trkpt lat="49.45283" lon="3.66886">
        <ele>131.39</ele>
        <time>2017-11-20T14:24:58.999Z</time>
      </trkpt>
      <trkpt lat="49.45297" lon="3.66881">
        <ele>131.66</ele>
        <time>2017-11-20T14:25:08.999Z</time>
      </trkpt>
      <trkpt lat="49.45305" lon="3.66886">
        <ele>131.08</ele>
        <time>2017-11-20T14:25:18.000Z</time>
      </trkpt>
      <trkpt lat="49.45313" lon="3.66888">
        <ele>130.11</ele>
        <time>2017-11-20T14:25:28.000Z</time>
      </trkpt>
      <trkpt lat="49.45326" lon="3.66889">
        <ele>130.26</ele>
        <time>2017-11-20T14:25:38.000Z</time>
      </trkpt>
      <trkpt lat="49.45337" lon="3.6689">
        <ele>132.04</ele>
        <time>2017-11-20T14:25:48.000Z</time>
      </trkpt>
      <trkpt lat="49.4535" lon="3.66894">
        <ele>133.89</ele>
        <time>2017-11-20T14:25:58.000Z</time>
      </trkpt>
      <trkpt lat="49.45359" lon="3.66899">
        <ele>134.93</ele>
        <time>2017-11-20T14:26:08.000Z</time>
      </trkpt>
      <trkpt lat="49.45372" lon="3.66904">
        <ele>135.39</ele>
        <time>2017-11-20T14:26:18.000Z</time>
      </trkpt>
      <trkpt lat="49.45383" lon="3.66907">
        <ele>135.01</ele>
        <time>2017-11-20T14:26:28.000Z</time>
      </trkpt>
      <trkpt lat="49.45395" lon="3.6691">
        <ele>134.64</ele>
        <time>2017-11-20T14:26:38.000Z</time>
      </trkpt>
      <trkpt lat="49.45406" lon="3.66914">
        <ele>134.21</ele>
        <time>2017-11-20T14:26:48.000Z</time>
      </trkpt>
      <trkpt lat="49.45415" lon="3.66917">
        <ele>133.72</ele>
        <time>2017-11-20T14:26:58.000Z</time>
      </trkpt>
      <trkpt lat="49.45425" lon="3.66923">
        <ele>132.74</ele>
        <time>2017-11-20T14:27:08.000Z</time>
      </trkpt>
      <trkpt lat="49.45436" lon="3.66928">
        <ele>132.27</ele>
        <time>2017-11-20T14:27:18.000Z</time>
      </trkpt>
      <trkpt lat="49.45449" lon="3.66935">
        <ele>132.56</ele>
        <time>2017-11-20T14:27:28.000Z</time>
      </trkpt>
      <trkpt lat="49.45458" lon="3.66942">
        <ele>132.64</ele>
        <time>2017-11-20T14:27:38.000Z</time>
      </trkpt>
      <trkpt lat="49.45467" lon="3.66952">
        <ele>131.62</ele>
        <time>2017-11-20T14:27:48.000Z</time>
      </trkpt>
      <trkpt lat="49.45475" lon="3.66962">
        <ele>130.88</ele>
        <time>2017-11-20T14:27:58.000Z</time>
      </trkpt>
      <trkpt lat="49.45484" lon="3.66973">
        <ele>130.15</ele>
        <time>2017-11-20T14:28:08.000Z</time>
      </trkpt>
      <trkpt lat="49.45491" lon="3.66985">
        <ele>129.52</ele>
        <time>2017-11-20T14:28:18.000Z</time>
      </trkpt>
      <trkpt lat="49.45494" lon="3.66995">
        <ele>129.15</ele>
        <time>2017-11-20T14:28:28.000Z</time>
      </trkpt>
      <trkpt lat="49.45493" lon="3.66986">
        <ele>128.62</ele>
        <time>2017-11-20T14:28:38.000Z</time>
      </trkpt>
      <trkpt lat="49.45492" lon="3.66972">
        <ele>127</ele>
        <time>2017-11-20T14:28:48.000Z</time>
      </trkpt>
      <trkpt lat="49.4549" lon="3.66965">
        <ele>126.53</ele>
        <time>2017-11-20T14:28:58.000Z</time>
      </trkpt>
      <trkpt lat="49.45489" lon="3.66964">
        <ele>126.77</ele>
        <time>2017-11-20T14:29:15.000Z</time>
      </trkpt>
      <trkpt lat="49.45493" lon="3.66967">
        <ele>127.85</ele>
        <time>2017-11-20T14:29:25.000Z</time>
      </trkpt>
      <trkpt lat="49.45505" lon="3.66983">
        <ele>129.05</ele>
        <time>2017-11-20T14:29:35.000Z</time>
      </trkpt>
      <trkpt lat="49.45515" lon="3.66994">
        <ele>129.97</ele>
        <time>2017-11-20T14:29:45.000Z</time>
      </trkpt>
      <trkpt lat="49.45517" lon="3.66997">
        <ele>130.34</ele>
        <time>2017-11-20T14:29:55.000Z</time>
      </trkpt>
      <trkpt lat="49.45521" lon="3.66997">
        <ele>130.7</ele>
        <time>2017-11-20T14:30:05.000Z</time>
      </trkpt>
      <trkpt lat="49.45528" lon="3.66998">
        <ele>130.84</ele>
        <time>2017-11-20T14:30:15.000Z</time>
      </trkpt>
      <trkpt lat="49.45536" lon="3.66995">
        <ele>130.55</ele>
        <time>2017-11-20T14:30:25.000Z</time>
      </trkpt>
      <trkpt lat="49.45538" lon="3.66991">
        <ele>130.6</ele>
        <time>2017-11-20T14:30:35.000Z</time>
      </trkpt>
      <trkpt lat="49.45539" lon="3.66993">
        <ele>130.6</ele>
        <time>2017-11-20T14:30:45.000Z</time>
      </trkpt>
      <trkpt lat="49.45554" lon="3.66986">
        <ele>130.28</ele>
        <time>2017-11-20T14:30:55.000Z</time>
      </trkpt>
      <trkpt lat="49.45562" lon="3.66983">
        <ele>129.35</ele>
        <time>2017-11-20T14:31:05.000Z</time>
      </trkpt>
      <trkpt lat="49.45584" lon="3.66976">
        <ele>127.96</ele>
        <time>2017-11-20T14:31:15.000Z</time>
      </trkpt>
      <trkpt lat="49.45606" lon="3.66967">
        <ele>126.6</ele>
        <time>2017-11-20T14:31:25.000Z</time>
      </trkpt>
      <trkpt lat="49.45619" lon="3.66964">
        <ele>125.61</ele>
        <time>2017-11-20T14:31:35.000Z</time>
      </trkpt>
      <trkpt lat="49.45627" lon="3.66963">
        <ele>125.4</ele>
        <time>2017-11-20T14:31:45.000Z</time>
      </trkpt>
      <trkpt lat="49.45634" lon="3.66956">
        <ele>125.53</ele>
        <time>2017-11-20T14:31:55.000Z</time>
      </trkpt>
      <trkpt lat="49.45641" lon="3.66948">
        <ele>125.38</ele>
        <time>2017-11-20T14:32:05.000Z</time>
      </trkpt>
      <trkpt lat="49.45652" lon="3.66939">
        <ele>124.19</ele>
        <time>2017-11-20T14:32:15.000Z</time>
      </trkpt>
      <trkpt lat="49.45658" lon="3.66929">
        <ele>123.68</ele>
        <time>2017-11-20T14:32:25.000Z</time>
      </trkpt>
      <trkpt lat="49.45661" lon="3.6692">
        <ele>123.29</ele>
        <time>2017-11-20T14:32:35.000Z</time>
      </trkpt>
      <trkpt lat="49.45668" lon="3.66916">
        <ele>122.73</ele>
        <time>2017-11-20T14:32:45.000Z</time>
      </trkpt>
      <trkpt lat="49.45672" lon="3.66912">
        <ele>121.55</ele>
        <time>2017-11-20T14:32:55.000Z</time>
      </trkpt>
      <trkpt lat="49.45678" lon="3.66906">
        <ele>119.77</ele>
        <time>2017-11-20T14:33:05.000Z</time>
      </trkpt>
      <trkpt lat="49.45691" lon="3.66892">
        <ele>118.1</ele>
        <time>2017-11-20T14:33:15.000Z</time>
      </trkpt>
      <trkpt lat="49.457" lon="3.66878">
        <ele>116.24</ele>
        <time>2017-11-20T14:33:25.000Z</time>
      </trkpt>
      <trkpt lat="49.45707" lon="3.66864">
        <ele>114.69</ele>
        <time>2017-11-20T14:33:35.000Z</time>
      </trkpt>
      <trkpt lat="49.45711" lon="3.66853">
        <ele>113.92</ele>
        <time>2017-11-20T14:33:45.000Z</time>
      </trkpt>
      <trkpt lat="49.45719" lon="3.66842">
        <ele>113.34</ele>
        <time>2017-11-20T14:33:55.000Z</time>
      </trkpt>
      <trkpt lat="49.45726" lon="3.66829">
        <ele>112.94</ele>
        <time>2017-11-20T14:34:05.000Z</time>
      </trkpt>
      <trkpt lat="49.4573" lon="3.66819">
        <ele>112.39</ele>
        <time>2017-11-20T14:34:15.000Z</time>
      </trkpt>
      <trkpt lat="49.45736" lon="3.66809">
        <ele>111.53</ele>
        <time>2017-11-20T14:34:25.000Z</time>
      </trkpt>
      <trkpt lat="49.45741" lon="3.66796">
        <ele>110.28</ele>
        <time>2017-11-20T14:34:35.000Z</time>
      </trkpt>
      <trkpt lat="49.45749" lon="3.66785">
        <ele>109.17</ele>
        <time>2017-11-20T14:34:45.000Z</time>
      </trkpt>
      <trkpt lat="49.45754" lon="3.66779">
        <ele>107.98</ele>
        <time>2017-11-20T14:34:55.000Z</time>
      </trkpt>
      <trkpt lat="49.4576" lon="3.66767">
        <ele>107.01</ele>
        <time>2017-11-20T14:35:05.000Z</time>
      </trkpt>
      <trkpt lat="49.45767" lon="3.6676">
        <ele>105.91</ele>
        <time>2017-11-20T14:35:15.000Z</time>
      </trkpt>
      <trkpt lat="49.45782" lon="3.66755">
        <ele>104.21</ele>
        <time>2017-11-20T14:35:25.000Z</time>
      </trkpt>
      <trkpt lat="49.45785" lon="3.66752">
        <ele>101.96</ele>
        <time>2017-11-20T14:35:35.000Z</time>
      </trkpt>
      <trkpt lat="49.45788" lon="3.66746">
        <ele>98.73</ele>
        <time>2017-11-20T14:35:45.000Z</time>
      </trkpt>
      <trkpt lat="49.45814" lon="3.66748">
        <ele>96.12</ele>
        <time>2017-11-20T14:35:55.000Z</time>
      </trkpt>
      <trkpt lat="49.45857" lon="3.66748">
        <ele>95.67</ele>
        <time>2017-11-20T14:36:05.000Z</time>
      </trkpt>
      <trkpt lat="49.45876" lon="3.66752">
        <ele>97.98</ele>
        <time>2017-11-20T14:36:15.000Z</time>
      </trkpt>
      <trkpt lat="49.45887" lon="3.66758">
        <ele>99.45</ele>
        <time>2017-11-20T14:36:25.000Z</time>
      </trkpt>
      <trkpt lat="49.45898" lon="3.66763">
        <ele>100.94</ele>
        <time>2017-11-20T14:36:35.000Z</time>
      </trkpt>
      <trkpt lat="49.45895" lon="3.6678">
        <ele>102.17</ele>
        <time>2017-11-20T14:36:45.000Z</time>
      </trkpt>
      <trkpt lat="49.45882" lon="3.66791">
        <ele>103.7</ele>
        <time>2017-11-20T14:36:55.000Z</time>
      </trkpt>
      <trkpt lat="49.45876" lon="3.668">
        <ele>104.97</ele>
        <time>2017-11-20T14:37:05.000Z</time>
      </trkpt>
      <trkpt lat="49.45872" lon="3.66801">
        <ele>105.25</ele>
        <time>2017-11-20T14:37:15.000Z</time>
      </trkpt>
      <trkpt lat="49.45882" lon="3.66807">
        <ele>107.15</ele>
        <time>2017-11-20T14:37:25.000Z</time>
      </trkpt>
      <trkpt lat="49.45889" lon="3.66798">
        <ele>107.35</ele>
        <time>2017-11-20T14:37:35.000Z</time>
      </trkpt>
      <trkpt lat="49.45892" lon="3.668">
        <ele>103.85</ele>
        <time>2017-11-20T14:37:45.000Z</time>
      </trkpt>
      <trkpt lat="49.45895" lon="3.668">
        <ele>102.86</ele>
        <time>2017-11-20T14:37:55.000Z</time>
      </trkpt>
      <trkpt lat="49.45895" lon="3.66802">
        <ele>102.48</ele>
        <time>2017-11-20T14:38:05.000Z</time>
      </trkpt>
      <trkpt lat="49.45896" lon="3.66802">
        <ele>102.08</ele>
        <time>2017-11-20T14:38:28.000Z</time>
      </trkpt>
      <trkpt lat="49.45905" lon="3.66794">
        <ele>102.15</ele>
        <time>2017-11-20T14:38:38.000Z</time>
      </trkpt>
      <trkpt lat="49.45918" lon="3.66793">
        <ele>101.39</ele>
        <time>2017-11-20T14:38:48.000Z</time>
      </trkpt>
      <trkpt lat="49.4593" lon="3.66791">
        <ele>99.95</ele>
        <time>2017-11-20T14:38:58.000Z</time>
      </trkpt>
      <trkpt lat="49.45946" lon="3.66791">
        <ele>98.33</ele>
        <time>2017-11-20T14:39:08.000Z</time>
      </trkpt>
      <trkpt lat="49.4596" lon="3.66787">
        <ele>96.61</ele>
        <time>2017-11-20T14:39:18.000Z</time>
      </trkpt>
      <trkpt lat="49.45972" lon="3.66784">
        <ele>95.31</ele>
        <time>2017-11-20T14:39:28.000Z</time>
      </trkpt>
      <trkpt lat="49.45985" lon="3.66775">
        <ele>94.56</ele>
        <time>2017-11-20T14:39:38.000Z</time>
      </trkpt>
      <trkpt lat="49.45996" lon="3.66766">
        <ele>94.3</ele>
        <time>2017-11-20T14:39:48.000Z</time>
      </trkpt>
      <trkpt lat="49.46007" lon="3.66755">
        <ele>93.86</ele>
        <time>2017-11-20T14:39:58.000Z</time>
      </trkpt>
      <trkpt lat="49.46017" lon="3.66745">
        <ele>93.49</ele>
        <time>2017-11-20T14:40:08.000Z</time>
      </trkpt>
      <trkpt lat="49.46026" lon="3.66734">
        <ele>93.09</ele>
        <time>2017-11-20T14:40:18.000Z</time>
      </trkpt>
      <trkpt lat="49.46039" lon="3.66722">
        <ele>92.67</ele>
        <time>2017-11-20T14:40:28.000Z</time>
      </trkpt>
      <trkpt lat="49.46049" lon="3.66712">
        <ele>92.47</ele>
        <time>2017-11-20T14:40:38.000Z</time>
      </trkpt>
      <trkpt lat="49.46066" lon="3.66705">
        <ele>91.58</ele>
        <time>2017-11-20T14:40:48.000Z</time>
      </trkpt>
      <trkpt lat="49.4608" lon="3.66696">
        <ele>90.63</ele>
        <time>2017-11-20T14:40:58.000Z</time>
      </trkpt>
      <trkpt lat="49.46091" lon="3.66684">
        <ele>89.26</ele>
        <time>2017-11-20T14:41:08.000Z</time>
      </trkpt>
      <trkpt lat="49.46111" lon="3.66671">
        <ele>87.75</ele>
        <time>2017-11-20T14:41:18.000Z</time>
      </trkpt>
      <trkpt lat="49.46125" lon="3.66687">
        <ele>86.21</ele>
        <time>2017-11-20T14:41:28.000Z</time>
      </trkpt>
      <trkpt lat="49.46136" lon="3.66689">
        <ele>85.15</ele>
        <time>2017-11-20T14:41:38.000Z</time>
      </trkpt>
      <trkpt lat="49.4615" lon="3.66684">
        <ele>84.21</ele>
        <time>2017-11-20T14:41:48.000Z</time>
      </trkpt>
      <trkpt lat="49.46164" lon="3.66681">
        <ele>84.21</ele>
        <time>2017-11-20T14:41:58.000Z</time>
      </trkpt>
      <trkpt lat="49.46177" lon="3.66675">
        <ele>84.47</ele>
        <time>2017-11-20T14:42:08.000Z</time>
      </trkpt>
      <trkpt lat="49.46188" lon="3.66671">
        <ele>84.06</ele>
        <time>2017-11-20T14:42:18.000Z</time>
      </trkpt>
      <trkpt lat="49.462" lon="3.66667">
        <ele>84.32</ele>
        <time>2017-11-20T14:42:28.000Z</time>
      </trkpt>
      <trkpt lat="49.46212" lon="3.6667">
        <ele>84.85</ele>
        <time>2017-11-20T14:42:38.000Z</time>
      </trkpt>
      <trkpt lat="49.46226" lon="3.66666">
        <ele>84.48</ele>
        <time>2017-11-20T14:42:48.000Z</time>
      </trkpt>
      <trkpt lat="49.4624" lon="3.66663">
        <ele>84.05</ele>
        <time>2017-11-20T14:42:58.000Z</time>
      </trkpt>
      <trkpt lat="49.46256" lon="3.6666">
        <ele>83.91</ele>
        <time>2017-11-20T14:43:08.000Z</time>
      </trkpt>
      <trkpt lat="49.46271" lon="3.66657">
        <ele>83.9</ele>
        <time>2017-11-20T14:43:18.000Z</time>
      </trkpt>
      <trkpt lat="49.46283" lon="3.66655">
        <ele>83.86</ele>
        <time>2017-11-20T14:43:28.000Z</time>
      </trkpt>
      <trkpt lat="49.46299" lon="3.66652">
        <ele>83.75</ele>
        <time>2017-11-20T14:43:38.000Z</time>
      </trkpt>
      <trkpt lat="49.46311" lon="3.66651">
        <ele>83.3</ele>
        <time>2017-11-20T14:43:48.000Z</time>
      </trkpt>
      <trkpt lat="49.46323" lon="3.66649">
        <ele>82.6</ele>
        <time>2017-11-20T14:43:58.000Z</time>
      </trkpt>
      <trkpt lat="49.46337" lon="3.66647">
        <ele>81.86</ele>
        <time>2017-11-20T14:44:08.000Z</time>
      </trkpt>
      <trkpt lat="49.46349" lon="3.66643">
        <ele>81</ele>
        <time>2017-11-20T14:44:18.000Z</time>
      </trkpt>
      <trkpt lat="49.46357" lon="3.66641">
        <ele>81.52</ele>
        <time>2017-11-20T14:44:28.000Z</time>
      </trkpt>
      <trkpt lat="49.46366" lon="3.66643">
        <ele>82.04</ele>
        <time>2017-11-20T14:44:38.000Z</time>
      </trkpt>
      <trkpt lat="49.46381" lon="3.66641">
        <ele>81.88</ele>
        <time>2017-11-20T14:44:48.000Z</time>
      </trkpt>
      <trkpt lat="49.46389" lon="3.6664">
        <ele>81.67</ele>
        <time>2017-11-20T14:44:58.000Z</time>
      </trkpt>
      <trkpt lat="49.46403" lon="3.66636">
        <ele>81.56</ele>
        <time>2017-11-20T14:45:08.000Z</time>
      </trkpt>
      <trkpt lat="49.46415" lon="3.66632">
        <ele>82.07</ele>
        <time>2017-11-20T14:45:18.000Z</time>
      </trkpt>
      <trkpt lat="49.4643" lon="3.66631">
        <ele>82.63</ele>
        <time>2017-11-20T14:45:28.000Z</time>
      </trkpt>
      <trkpt lat="49.46445" lon="3.6663">
        <ele>82.75</ele>
        <time>2017-11-20T14:45:38.000Z</time>
      </trkpt>
      <trkpt lat="49.4646" lon="3.66627">
        <ele>82.9</ele>
        <time>2017-11-20T14:45:48.000Z</time>
      </trkpt>
      <trkpt lat="49.46473" lon="3.66625">
        <ele>82.71</ele>
        <time>2017-11-20T14:45:58.000Z</time>
      </trkpt>
      <trkpt lat="49.46487" lon="3.66623">
        <ele>82.64</ele>
        <time>2017-11-20T14:46:08.000Z</time>
      </trkpt>
      <trkpt lat="49.46498" lon="3.6662">
        <ele>82.16</ele>
        <time>2017-11-20T14:46:18.000Z</time>
      </trkpt>
      <trkpt lat="49.46512" lon="3.66618">
        <ele>81.47</ele>
        <time>2017-11-20T14:46:28.000Z</time>
      </trkpt>
      <trkpt lat="49.46526" lon="3.66616">
        <ele>80.91</ele>
        <time>2017-11-20T14:46:38.000Z</time>
      </trkpt>
      <trkpt lat="49.4654" lon="3.66612">
        <ele>80.93</ele>
        <time>2017-11-20T14:46:48.000Z</time>
      </trkpt>
      <trkpt lat="49.46555" lon="3.66609">
        <ele>81.29</ele>
        <time>2017-11-20T14:46:58.000Z</time>
      </trkpt>
      <trkpt lat="49.46568" lon="3.66607">
        <ele>81.37</ele>
        <time>2017-11-20T14:47:08.000Z</time>
      </trkpt>
      <trkpt lat="49.46581" lon="3.66605">
        <ele>81.41</ele>
        <time>2017-11-20T14:47:18.000Z</time>
      </trkpt>
      <trkpt lat="49.46594" lon="3.66602">
        <ele>81.29</ele>
        <time>2017-11-20T14:47:28.000Z</time>
      </trkpt>
      <trkpt lat="49.46608" lon="3.666">
        <ele>80.97</ele>
        <time>2017-11-20T14:47:38.000Z</time>
      </trkpt>
      <trkpt lat="49.46619" lon="3.66602">
        <ele>80.44</ele>
        <time>2017-11-20T14:47:48.000Z</time>
      </trkpt>
      <trkpt lat="49.46627" lon="3.66597">
        <ele>79.4</ele>
        <time>2017-11-20T14:47:57.999Z</time>
      </trkpt>
      <trkpt lat="49.46642" lon="3.66596">
        <ele>78.43</ele>
        <time>2017-11-20T14:48:07.999Z</time>
      </trkpt>
      <trkpt lat="49.46653" lon="3.66595">
        <ele>77.97</ele>
        <time>2017-11-20T14:48:17.999Z</time>
      </trkpt>
      <trkpt lat="49.46665" lon="3.66592">
        <ele>77.44</ele>
        <time>2017-11-20T14:48:27.999Z</time>
      </trkpt>
      <trkpt lat="49.4668" lon="3.66591">
        <ele>77.31</ele>
        <time>2017-11-20T14:48:37.999Z</time>
      </trkpt>
      <trkpt lat="49.46692" lon="3.66588">
        <ele>77.86</ele>
        <time>2017-11-20T14:48:47.999Z</time>
      </trkpt>
      <trkpt lat="49.46703" lon="3.66586">
        <ele>78.32</ele>
        <time>2017-11-20T14:48:57.999Z</time>
      </trkpt>
      <trkpt lat="49.46716" lon="3.66583">
        <ele>79.21</ele>
        <time>2017-11-20T14:49:07.999Z</time>
      </trkpt>
      <trkpt lat="49.46731" lon="3.6658">
        <ele>79.55</ele>
        <time>2017-11-20T14:49:17.999Z</time>
      </trkpt>
      <trkpt lat="49.46741" lon="3.66582">
        <ele>79.87</ele>
        <time>2017-11-20T14:49:27.999Z</time>
      </trkpt>
      <trkpt lat="49.46753" lon="3.6658">
        <ele>79.92</ele>
        <time>2017-11-20T14:49:37.999Z</time>
      </trkpt>
      <trkpt lat="49.46762" lon="3.66575">
        <ele>79.72</ele>
        <time>2017-11-20T14:49:47.999Z</time>
      </trkpt>
      <trkpt lat="49.46774" lon="3.66573">
        <ele>79.41</ele>
        <time>2017-11-20T14:49:57.999Z</time>
      </trkpt>
      <trkpt lat="49.46788" lon="3.66571">
        <ele>79.27</ele>
        <time>2017-11-20T14:50:07.999Z</time>
      </trkpt>
      <trkpt lat="49.468" lon="3.66568">
        <ele>79.29</ele>
        <time>2017-11-20T14:50:17.999Z</time>
      </trkpt>
      <trkpt lat="49.46809" lon="3.66566">
        <ele>79.31</ele>
        <time>2017-11-20T14:50:27.999Z</time>
      </trkpt>
      <trkpt lat="49.46823" lon="3.66567">
        <ele>79.39</ele>
        <time>2017-11-20T14:50:37.999Z</time>
      </trkpt>
      <trkpt lat="49.46835" lon="3.66565">
        <ele>79.4</ele>
        <time>2017-11-20T14:50:47.999Z</time>
      </trkpt>
      <trkpt lat="49.46847" lon="3.66564">
        <ele>79.87</ele>
        <time>2017-11-20T14:50:57.999Z</time>
      </trkpt>
      <trkpt lat="49.46859" lon="3.66567">
        <ele>80.6</ele>
        <time>2017-11-20T14:51:07.999Z</time>
      </trkpt>
      <trkpt lat="49.46871" lon="3.66575">
        <ele>81.43</ele>
        <time>2017-11-20T14:51:17.999Z</time>
      </trkpt>
      <trkpt lat="49.4688" lon="3.66579">
        <ele>81.26</ele>
        <time>2017-11-20T14:51:27.999Z</time>
      </trkpt>
      <trkpt lat="49.46893" lon="3.66573">
        <ele>81.11</ele>
        <time>2017-11-20T14:51:37.999Z</time>
      </trkpt>
      <trkpt lat="49.46899" lon="3.6657">
        <ele>81.15</ele>
        <time>2017-11-20T14:51:47.999Z</time>
      </trkpt>
      <trkpt lat="49.46908" lon="3.66559">
        <ele>80.66</ele>
        <time>2017-11-20T14:51:57.999Z</time>
      </trkpt>
      <trkpt lat="49.46917" lon="3.66547">
        <ele>80.33</ele>
        <time>2017-11-20T14:52:07.999Z</time>
      </trkpt>
      <trkpt lat="49.46922" lon="3.66533">
        <ele>80.1</ele>
        <time>2017-11-20T14:52:17.999Z</time>
      </trkpt>
      <trkpt lat="49.46927" lon="3.66521">
        <ele>79.38</ele>
        <time>2017-11-20T14:52:27.999Z</time>
      </trkpt>
      <trkpt lat="49.46942" lon="3.66517">
        <ele>78.97</ele>
        <time>2017-11-20T14:52:37.999Z</time>
      </trkpt>
      <trkpt lat="49.46954" lon="3.66516">
        <ele>79.36</ele>
        <time>2017-11-20T14:52:47.999Z</time>
      </trkpt>
      <trkpt lat="49.46965" lon="3.66514">
        <ele>80.37</ele>
        <time>2017-11-20T14:52:57.999Z</time>
      </trkpt>
      <trkpt lat="49.46976" lon="3.66513">
        <ele>81.98</ele>
        <time>2017-11-20T14:53:07.999Z</time>
      </trkpt>
      <trkpt lat="49.46987" lon="3.66511">
        <ele>83.48</ele>
        <time>2017-11-20T14:53:17.999Z</time>
      </trkpt>
      <trkpt lat="49.47002" lon="3.66512">
        <ele>84.46</ele>
        <time>2017-11-20T14:53:27.999Z</time>
      </trkpt>
      <trkpt lat="49.47012" lon="3.66511">
        <ele>84.96</ele>
        <time>2017-11-20T14:53:37.999Z</time>
      </trkpt>
      <trkpt lat="49.47027" lon="3.6651">
        <ele>85.55</ele>
        <time>2017-11-20T14:53:47.999Z</time>
      </trkpt>
      <trkpt lat="49.47036" lon="3.66509">
        <ele>86.39</ele>
        <time>2017-11-20T14:53:57.999Z</time>
      </trkpt>
      <trkpt lat="49.4705" lon="3.66508">
        <ele>87.05</ele>
        <time>2017-11-20T14:54:07.999Z</time>
      </trkpt>
      <trkpt lat="49.47059" lon="3.66508">
        <ele>87.55</ele>
        <time>2017-11-20T14:54:17.999Z</time>
      </trkpt>
      <trkpt lat="49.47072" lon="3.66505">
        <ele>88.36</ele>
        <time>2017-11-20T14:54:27.999Z</time>
      </trkpt>
      <trkpt lat="49.47085" lon="3.66503">
        <ele>89.19</ele>
        <time>2017-11-20T14:54:37.999Z</time>
      </trkpt>
      <trkpt lat="49.47098" lon="3.66502">
        <ele>89.92</ele>
        <time>2017-11-20T14:54:47.999Z</time>
      </trkpt>
      <trkpt lat="49.47107" lon="3.66507">
        <ele>90.34</ele>
        <time>2017-11-20T14:54:57.999Z</time>
      </trkpt>
      <trkpt lat="49.47117" lon="3.66519">
        <ele>90.91</ele>
        <time>2017-11-20T14:55:07.999Z</time>
      </trkpt>
      <trkpt lat="49.47115" lon="3.66538">
        <ele>92.02</ele>
        <time>2017-11-20T14:55:17.999Z</time>
      </trkpt>
      <trkpt lat="49.47118" lon="3.66556">
        <ele>92.88</ele>
        <time>2017-11-20T14:55:27.999Z</time>
      </trkpt>
      <trkpt lat="49.47119" lon="3.66576">
        <ele>94.68</ele>
        <time>2017-11-20T14:55:37.999Z</time>
      </trkpt>
      <trkpt lat="49.4712" lon="3.66593">
        <ele>96.19</ele>
        <time>2017-11-20T14:55:47.999Z</time>
      </trkpt>
      <trkpt lat="49.47124" lon="3.66609">
        <ele>97.23</ele>
        <time>2017-11-20T14:55:57.999Z</time>
      </trkpt>
      <trkpt lat="49.47123" lon="3.66631">
        <ele>98.36</ele>
        <time>2017-11-20T14:56:07.999Z</time>
      </trkpt>
      <trkpt lat="49.47124" lon="3.66649">
        <ele>98.41</ele>
        <time>2017-11-20T14:56:17.999Z</time>
      </trkpt>
      <trkpt lat="49.47123" lon="3.66667">
        <ele>98.67</ele>
        <time>2017-11-20T14:56:27.999Z</time>
      </trkpt>
      <trkpt lat="49.47121" lon="3.66685">
        <ele>99.24</ele>
        <time>2017-11-20T14:56:37.999Z</time>
      </trkpt>
      <trkpt lat="49.47118" lon="3.66701">
        <ele>99.12</ele>
        <time>2017-11-20T14:56:47.999Z</time>
      </trkpt>
      <trkpt lat="49.47117" lon="3.66716">
        <ele>98.46</ele>
        <time>2017-11-20T14:56:57.999Z</time>
      </trkpt>
      <trkpt lat="49.47113" lon="3.66731">
        <ele>97.94</ele>
        <time>2017-11-20T14:57:07.999Z</time>
      </trkpt>
      <trkpt lat="49.47112" lon="3.66748">
        <ele>98.1</ele>
        <time>2017-11-20T14:57:17.999Z</time>
      </trkpt>
      <trkpt lat="49.47109" lon="3.66766">
        <ele>97.93</ele>
        <time>2017-11-20T14:57:27.999Z</time>
      </trkpt>
      <trkpt lat="49.47104" lon="3.66783">
        <ele>97.56</ele>
        <time>2017-11-20T14:57:37.999Z</time>
      </trkpt>
      <trkpt lat="49.47105" lon="3.66795">
        <ele>97.11</ele>
        <time>2017-11-20T14:57:47.999Z</time>
      </trkpt>
      <trkpt lat="49.47102" lon="3.66817">
        <ele>96.68</ele>
        <time>2017-11-20T14:57:57.999Z</time>
      </trkpt>
      <trkpt lat="49.471" lon="3.6684">
        <ele>96.17</ele>
        <time>2017-11-20T14:58:07.999Z</time>
      </trkpt>
      <trkpt lat="49.47103" lon="3.66853">
        <ele>95</ele>
        <time>2017-11-20T14:58:17.999Z</time>
      </trkpt>
      <trkpt lat="49.47112" lon="3.66865">
        <ele>93.65</ele>
        <time>2017-11-20T14:58:27.999Z</time>
      </trkpt>
      <trkpt lat="49.47117" lon="3.66881">
        <ele>92.78</ele>
        <time>2017-11-20T14:58:37.999Z</time>
      </trkpt>
      <trkpt lat="49.47126" lon="3.66897">
        <ele>91.17</ele>
        <time>2017-11-20T14:58:47.999Z</time>
      </trkpt>
      <trkpt lat="49.47136" lon="3.66908">
        <ele>89.36</ele>
        <time>2017-11-20T14:58:57.999Z</time>
      </trkpt>
      <trkpt lat="49.47142" lon="3.66923">
        <ele>87.85</ele>
        <time>2017-11-20T14:59:07.999Z</time>
      </trkpt>
      <trkpt lat="49.47152" lon="3.66935">
        <ele>87.1</ele>
        <time>2017-11-20T14:59:17.999Z</time>
      </trkpt>
      <trkpt lat="49.47161" lon="3.66946">
        <ele>86.33</ele>
        <time>2017-11-20T14:59:27.999Z</time>
      </trkpt>
      <trkpt lat="49.47169" lon="3.6696">
        <ele>85.8</ele>
        <time>2017-11-20T14:59:37.999Z</time>
      </trkpt>
      <trkpt lat="49.47176" lon="3.66973">
        <ele>84.91</ele>
        <time>2017-11-20T14:59:47.999Z</time>
      </trkpt>
      <trkpt lat="49.47188" lon="3.6699">
        <ele>85.23</ele>
        <time>2017-11-20T14:59:57.999Z</time>
      </trkpt>
      <trkpt lat="49.47194" lon="3.67002">
        <ele>85.88</ele>
        <time>2017-11-20T15:00:07.999Z</time>
      </trkpt>
      <trkpt lat="49.47197" lon="3.67019">
        <ele>86.69</ele>
        <time>2017-11-20T15:00:17.999Z</time>
      </trkpt>
      <trkpt lat="49.47197" lon="3.67035">
        <ele>87.25</ele>
        <time>2017-11-20T15:00:27.999Z</time>
      </trkpt>
      <trkpt lat="49.472" lon="3.67057">
        <ele>87.65</ele>
        <time>2017-11-20T15:00:37.999Z</time>
      </trkpt>
      <trkpt lat="49.47204" lon="3.67076">
        <ele>88.05</ele>
        <time>2017-11-20T15:00:47.999Z</time>
      </trkpt>
      <trkpt lat="49.47207" lon="3.67093">
        <ele>88.33</ele>
        <time>2017-11-20T15:00:57.999Z</time>
      </trkpt>
      <trkpt lat="49.47213" lon="3.67113">
        <ele>88.97</ele>
        <time>2017-11-20T15:01:07.999Z</time>
      </trkpt>
      <trkpt lat="49.47218" lon="3.6713">
        <ele>88.8</ele>
        <time>2017-11-20T15:01:17.999Z</time>
      </trkpt>
      <trkpt lat="49.47225" lon="3.67143">
        <ele>88.82</ele>
        <time>2017-11-20T15:01:27.999Z</time>
      </trkpt>
      <trkpt lat="49.47231" lon="3.67157">
        <ele>88.7</ele>
        <time>2017-11-20T15:01:37.999Z</time>
      </trkpt>
      <trkpt lat="49.47238" lon="3.67171">
        <ele>87.54</ele>
        <time>2017-11-20T15:01:47.999Z</time>
      </trkpt>
      <trkpt lat="49.47242" lon="3.67193">
        <ele>87.03</ele>
        <time>2017-11-20T15:01:57.999Z</time>
      </trkpt>
      <trkpt lat="49.47248" lon="3.67206">
        <ele>86.72</ele>
        <time>2017-11-20T15:02:07.999Z</time>
      </trkpt>
      <trkpt lat="49.47258" lon="3.67223">
        <ele>86.27</ele>
        <time>2017-11-20T15:02:17.999Z</time>
      </trkpt>
      <trkpt lat="49.47263" lon="3.67238">
        <ele>84.73</ele>
        <time>2017-11-20T15:02:27.999Z</time>
      </trkpt>
      <trkpt lat="49.47268" lon="3.67249">
        <ele>83.78</ele>
        <time>2017-11-20T15:02:37.999Z</time>
      </trkpt>
      <trkpt lat="49.47274" lon="3.67262">
        <ele>83.52</ele>
        <time>2017-11-20T15:02:47.999Z</time>
      </trkpt>
      <trkpt lat="49.47281" lon="3.67279">
        <ele>83.42</ele>
        <time>2017-11-20T15:02:57.999Z</time>
      </trkpt>
      <trkpt lat="49.47287" lon="3.67302">
        <ele>83.48</ele>
        <time>2017-11-20T15:03:07.999Z</time>
      </trkpt>
      <trkpt lat="49.47295" lon="3.67313">
        <ele>83.7</ele>
        <time>2017-11-20T15:03:17.999Z</time>
      </trkpt>
      <trkpt lat="49.473" lon="3.67328">
        <ele>84.67</ele>
        <time>2017-11-20T15:03:27.999Z</time>
      </trkpt>
      <trkpt lat="49.47307" lon="3.67345">
        <ele>85.65</ele>
        <time>2017-11-20T15:03:37.999Z</time>
      </trkpt>
      <trkpt lat="49.47313" lon="3.6736">
        <ele>85.77</ele>
        <time>2017-11-20T15:03:47.999Z</time>
      </trkpt>
      <trkpt lat="49.4732" lon="3.67372">
        <ele>85.85</ele>
        <time>2017-11-20T15:03:57.999Z</time>
      </trkpt>
      <trkpt lat="49.47326" lon="3.67389">
        <ele>85.69</ele>
        <time>2017-11-20T15:04:07.999Z</time>
      </trkpt>
      <trkpt lat="49.47333" lon="3.67407">
        <ele>86.21</ele>
        <time>2017-11-20T15:04:17.999Z</time>
      </trkpt>
      <trkpt lat="49.47339" lon="3.67422">
        <ele>86.45</ele>
        <time>2017-11-20T15:04:27.999Z</time>
      </trkpt>
      <trkpt lat="49.47345" lon="3.67437">
        <ele>86.46</ele>
        <time>2017-11-20T15:04:37.999Z</time>
      </trkpt>
      <trkpt lat="49.47349" lon="3.67454">
        <ele>86.37</ele>
        <time>2017-11-20T15:04:47.999Z</time>
      </trkpt>
      <trkpt lat="49.47356" lon="3.67474">
        <ele>86.33</ele>
        <time>2017-11-20T15:04:57.999Z</time>
      </trkpt>
      <trkpt lat="49.47363" lon="3.67489">
        <ele>85.86</ele>
        <time>2017-11-20T15:05:07.999Z</time>
      </trkpt>
      <trkpt lat="49.47368" lon="3.67504">
        <ele>85.53</ele>
        <time>2017-11-20T15:05:17.999Z</time>
      </trkpt>
      <trkpt lat="49.47376" lon="3.67521">
        <ele>85.68</ele>
        <time>2017-11-20T15:05:27.999Z</time>
      </trkpt>
      <trkpt lat="49.47382" lon="3.67541">
        <ele>85.54</ele>
        <time>2017-11-20T15:05:37.999Z</time>
      </trkpt>
      <trkpt lat="49.47386" lon="3.67556">
        <ele>85.41</ele>
        <time>2017-11-20T15:05:47.999Z</time>
      </trkpt>
      <trkpt lat="49.47393" lon="3.67571">
        <ele>85.78</ele>
        <time>2017-11-20T15:05:57.999Z</time>
      </trkpt>
      <trkpt lat="49.47399" lon="3.67586">
        <ele>86.37</ele>
        <time>2017-11-20T15:06:07.999Z</time>
      </trkpt>
      <trkpt lat="49.47407" lon="3.67602">
        <ele>86.91</ele>
        <time>2017-11-20T15:06:17.999Z</time>
      </trkpt>
      <trkpt lat="49.47412" lon="3.67617">
        <ele>87.19</ele>
        <time>2017-11-20T15:06:27.999Z</time>
      </trkpt>
      <trkpt lat="49.47415" lon="3.67632">
        <ele>86.48</ele>
        <time>2017-11-20T15:06:37.999Z</time>
      </trkpt>
      <trkpt lat="49.47422" lon="3.67652">
        <ele>86.41</ele>
        <time>2017-11-20T15:06:47.999Z</time>
      </trkpt>
      <trkpt lat="49.47429" lon="3.67669">
        <ele>86.19</ele>
        <time>2017-11-20T15:06:57.999Z</time>
      </trkpt>
      <trkpt lat="49.47436" lon="3.67685">
        <ele>86.52</ele>
        <time>2017-11-20T15:07:07.999Z</time>
      </trkpt>
      <trkpt lat="49.47441" lon="3.67698">
        <ele>87.08</ele>
        <time>2017-11-20T15:07:17.999Z</time>
      </trkpt>
      <trkpt lat="49.47441" lon="3.67717">
        <ele>88.51</ele>
        <time>2017-11-20T15:07:27.999Z</time>
      </trkpt>
      <trkpt lat="49.4744" lon="3.67736">
        <ele>88.83</ele>
        <time>2017-11-20T15:07:37.999Z</time>
      </trkpt>
      <trkpt lat="49.47441" lon="3.67745">
        <ele>88.47</ele>
        <time>2017-11-20T15:07:47.999Z</time>
      </trkpt>
      <trkpt lat="49.47442" lon="3.67751">
        <ele>88.01</ele>
        <time>2017-11-20T15:07:57.999Z</time>
      </trkpt>
      <trkpt lat="49.47441" lon="3.67752">
        <ele>88.13</ele>
        <time>2017-11-20T15:08:07.999Z</time>
      </trkpt>
      <trkpt lat="49.4744" lon="3.6775">
        <ele>88.39</ele>
        <time>2017-11-20T15:08:17.999Z</time>
      </trkpt>
      <trkpt lat="49.47442" lon="3.67751">
        <ele>88.43</ele>
        <time>2017-11-20T15:08:27.999Z</time>
      </trkpt>
      <trkpt lat="49.4744" lon="3.67758">
        <ele>88.22</ele>
        <time>2017-11-20T15:08:37.999Z</time>
      </trkpt>
      <trkpt lat="49.47437" lon="3.67761">
        <ele>87.69</ele>
        <time>2017-11-20T15:08:47.999Z</time>
      </trkpt>
      <trkpt lat="49.47439" lon="3.67761">
        <ele>87.13</ele>
        <time>2017-11-20T15:08:57.999Z</time>
      </trkpt>
      <trkpt lat="49.47438" lon="3.67759">
        <ele>86.59</ele>
        <time>2017-11-20T15:09:14.999Z</time>
      </trkpt>
      <trkpt lat="49.47439" lon="3.67758">
        <ele>86.38</ele>
        <time>2017-11-20T15:09:24.999Z</time>
      </trkpt>
      <trkpt lat="49.47446" lon="3.67755">
        <ele>86.44</ele>
        <time>2017-11-20T15:09:34.999Z</time>
      </trkpt>
      <trkpt lat="49.47445" lon="3.67754">
        <ele>86.49</ele>
        <time>2017-11-20T15:09:44.999Z</time>
      </trkpt>
      <trkpt lat="49.47443" lon="3.67753">
        <ele>86.54</ele>
        <time>2017-11-20T15:09:54.999Z</time>
      </trkpt>
      <trkpt lat="49.47444" lon="3.67747">
        <ele>87</ele>
        <time>2017-11-20T15:10:04.999Z</time>
      </trkpt>
      <trkpt lat="49.47445" lon="3.67748">
        <ele>87.09</ele>
        <time>2017-11-20T15:10:14.999Z</time>
      </trkpt>
      <trkpt lat="49.47441" lon="3.67761">
        <ele>87.22</ele>
        <time>2017-11-20T15:10:24.999Z</time>
      </trkpt>
      <trkpt lat="49.47436" lon="3.67778">
        <ele>87.45</ele>
        <time>2017-11-20T15:10:34.000Z</time>
      </trkpt>
      <trkpt lat="49.4743" lon="3.67795">
        <ele>87.57</ele>
        <time>2017-11-20T15:10:44.000Z</time>
      </trkpt>
      <trkpt lat="49.47424" lon="3.67814">
        <ele>87.35</ele>
        <time>2017-11-20T15:10:54.000Z</time>
      </trkpt>
      <trkpt lat="49.47417" lon="3.67829">
        <ele>86.81</ele>
        <time>2017-11-20T15:11:04.000Z</time>
      </trkpt>
      <trkpt lat="49.47416" lon="3.67839">
        <ele>86.37</ele>
        <time>2017-11-20T15:11:14.000Z</time>
      </trkpt>
      <trkpt lat="49.47424" lon="3.67848">
        <ele>86.03</ele>
        <time>2017-11-20T15:11:24.000Z</time>
      </trkpt>
      <trkpt lat="49.47434" lon="3.67858">
        <ele>85.71</ele>
        <time>2017-11-20T15:11:34.000Z</time>
      </trkpt>
      <trkpt lat="49.47434" lon="3.67869">
        <ele>85.54</ele>
        <time>2017-11-20T15:11:44.000Z</time>
      </trkpt>
      <trkpt lat="49.47429" lon="3.67882">
        <ele>85.7</ele>
        <time>2017-11-20T15:11:54.000Z</time>
      </trkpt>
      <trkpt lat="49.47425" lon="3.67898">
        <ele>85.83</ele>
        <time>2017-11-20T15:12:04.000Z</time>
      </trkpt>
      <trkpt lat="49.47424" lon="3.67914">
        <ele>85.44</ele>
        <time>2017-11-20T15:12:14.000Z</time>
      </trkpt>
      <trkpt lat="49.47422" lon="3.67922">
        <ele>85.1</ele>
        <time>2017-11-20T15:12:24.000Z</time>
      </trkpt>
      <trkpt lat="49.47423" lon="3.67942">
        <ele>85.53</ele>
        <time>2017-11-20T15:12:34.000Z</time>
      </trkpt>
      <trkpt lat="49.47425" lon="3.67956">
        <ele>85.61</ele>
        <time>2017-11-20T15:12:44.000Z</time>
      </trkpt>
      <trkpt lat="49.47426" lon="3.67958">
        <ele>85.69</ele>
        <time>2017-11-20T15:12:54.000Z</time>
      </trkpt>
      <trkpt lat="49.47425" lon="3.67958">
        <ele>86.25</ele>
        <time>2017-11-20T15:13:18.000Z</time>
      </trkpt>
      <trkpt lat="49.47418" lon="3.67957">
        <ele>86.83</ele>
        <time>2017-11-20T15:13:28.000Z</time>
      </trkpt>
      <trkpt lat="49.47407" lon="3.67958">
        <ele>87.2</ele>
        <time>2017-11-20T15:13:38.000Z</time>
      </trkpt>
      <trkpt lat="49.47396" lon="3.67961">
        <ele>87.31</ele>
        <time>2017-11-20T15:13:48.000Z</time>
      </trkpt>
      <trkpt lat="49.47383" lon="3.67968">
        <ele>87.49</ele>
        <time>2017-11-20T15:13:58.000Z</time>
      </trkpt>
      <trkpt lat="49.47372" lon="3.67979">
        <ele>88.05</ele>
        <time>2017-11-20T15:14:08.000Z</time>
      </trkpt>
      <trkpt lat="49.47365" lon="3.67989">
        <ele>89.2</ele>
        <time>2017-11-20T15:14:18.000Z</time>
      </trkpt>
      <trkpt lat="49.47359" lon="3.67999">
        <ele>90.64</ele>
        <time>2017-11-20T15:14:28.000Z</time>
      </trkpt>
      <trkpt lat="49.47353" lon="3.68015">
        <ele>92.1</ele>
        <time>2017-11-20T15:14:38.000Z</time>
      </trkpt>
      <trkpt lat="49.47348" lon="3.68032">
        <ele>93.55</ele>
        <time>2017-11-20T15:14:48.000Z</time>
      </trkpt>
      <trkpt lat="49.47344" lon="3.68048">
        <ele>94.91</ele>
        <time>2017-11-20T15:14:58.000Z</time>
      </trkpt>
      <trkpt lat="49.47339" lon="3.6806">
        <ele>95.62</ele>
        <time>2017-11-20T15:15:08.000Z</time>
      </trkpt>
      <trkpt lat="49.47332" lon="3.68073">
        <ele>95.95</ele>
        <time>2017-11-20T15:15:18.000Z</time>
      </trkpt>
      <trkpt lat="49.47322" lon="3.68086">
        <ele>96.01</ele>
        <time>2017-11-20T15:15:28.000Z</time>
      </trkpt>
      <trkpt lat="49.47309" lon="3.68107">
        <ele>95.33</ele>
        <time>2017-11-20T15:15:38.000Z</time>
      </trkpt>
      <trkpt lat="49.47301" lon="3.68123">
        <ele>94.46</ele>
        <time>2017-11-20T15:15:48.000Z</time>
      </trkpt>
      <trkpt lat="49.47296" lon="3.68131">
        <ele>93.67</ele>
        <time>2017-11-20T15:15:58.000Z</time>
      </trkpt>
      <trkpt lat="49.47293" lon="3.68142">
        <ele>93.53</ele>
        <time>2017-11-20T15:16:08.000Z</time>
      </trkpt>
      <trkpt lat="49.47294" lon="3.6816">
        <ele>93.13</ele>
        <time>2017-11-20T15:16:18.000Z</time>
      </trkpt>
      <trkpt lat="49.47291" lon="3.68181">
        <ele>92.89</ele>
        <time>2017-11-20T15:16:28.000Z</time>
      </trkpt>
      <trkpt lat="49.47288" lon="3.68201">
        <ele>93.04</ele>
        <time>2017-11-20T15:16:38.000Z</time>
      </trkpt>
      <trkpt lat="49.47283" lon="3.68214">
        <ele>93.41</ele>
        <time>2017-11-20T15:16:48.000Z</time>
      </trkpt>
      <trkpt lat="49.47279" lon="3.6823">
        <ele>94.26</ele>
        <time>2017-11-20T15:16:58.000Z</time>
      </trkpt>
      <trkpt lat="49.47272" lon="3.6824">
        <ele>95.47</ele>
        <time>2017-11-20T15:17:08.000Z</time>
      </trkpt>
      <trkpt lat="49.47264" lon="3.68246">
        <ele>96.5</ele>
        <time>2017-11-20T15:17:18.000Z</time>
      </trkpt>
      <trkpt lat="49.47251" lon="3.68258">
        <ele>97</ele>
        <time>2017-11-20T15:17:28.000Z</time>
      </trkpt>
      <trkpt lat="49.47244" lon="3.68256">
        <ele>96.16</ele>
        <time>2017-11-20T15:17:38.000Z</time>
      </trkpt>
      <trkpt lat="49.47236" lon="3.68243">
        <ele>94.81</ele>
        <time>2017-11-20T15:17:48.000Z</time>
      </trkpt>
      <trkpt lat="49.47224" lon="3.68223">
        <ele>92.62</ele>
        <time>2017-11-20T15:17:58.000Z</time>
      </trkpt>
      <trkpt lat="49.47213" lon="3.68213">
        <ele>91.31</ele>
        <time>2017-11-20T15:18:08.000Z</time>
      </trkpt>
      <trkpt lat="49.47202" lon="3.6821">
        <ele>91.05</ele>
        <time>2017-11-20T15:18:18.000Z</time>
      </trkpt>
      <trkpt lat="49.47193" lon="3.68208">
        <ele>90.87</ele>
        <time>2017-11-20T15:18:28.000Z</time>
      </trkpt>
      <trkpt lat="49.4718" lon="3.68207">
        <ele>91.21</ele>
        <time>2017-11-20T15:18:38.000Z</time>
      </trkpt>
      <trkpt lat="49.47169" lon="3.68211">
        <ele>92.07</ele>
        <time>2017-11-20T15:18:48.000Z</time>
      </trkpt>
      <trkpt lat="49.47158" lon="3.68212">
        <ele>93.27</ele>
        <time>2017-11-20T15:18:58.000Z</time>
      </trkpt>
      <trkpt lat="49.47147" lon="3.68216">
        <ele>94.53</ele>
        <time>2017-11-20T15:19:08.000Z</time>
      </trkpt>
      <trkpt lat="49.47134" lon="3.68218">
        <ele>95.63</ele>
        <time>2017-11-20T15:19:18.000Z</time>
      </trkpt>
      <trkpt lat="49.47122" lon="3.68221">
        <ele>96.11</ele>
        <time>2017-11-20T15:19:28.000Z</time>
      </trkpt>
      <trkpt lat="49.4711" lon="3.68226">
        <ele>96.32</ele>
        <time>2017-11-20T15:19:38.000Z</time>
      </trkpt>
      <trkpt lat="49.47098" lon="3.68228">
        <ele>96.46</ele>
        <time>2017-11-20T15:19:48.000Z</time>
      </trkpt>
      <trkpt lat="49.47088" lon="3.68228">
        <ele>96.45</ele>
        <time>2017-11-20T15:19:58.000Z</time>
      </trkpt>
      <trkpt lat="49.47075" lon="3.6823">
        <ele>96.88</ele>
        <time>2017-11-20T15:20:08.000Z</time>
      </trkpt>
      <trkpt lat="49.47064" lon="3.68232">
        <ele>97.26</ele>
        <time>2017-11-20T15:20:18.000Z</time>
      </trkpt>
      <trkpt lat="49.47051" lon="3.68236">
        <ele>97.72</ele>
        <time>2017-11-20T15:20:28.000Z</time>
      </trkpt>
      <trkpt lat="49.47039" lon="3.68238">
        <ele>98.04</ele>
        <time>2017-11-20T15:20:38.000Z</time>
      </trkpt>
      <trkpt lat="49.47026" lon="3.68241">
        <ele>98.06</ele>
        <time>2017-11-20T15:20:48.000Z</time>
      </trkpt>
      <trkpt lat="49.47013" lon="3.68242">
        <ele>98.07</ele>
        <time>2017-11-20T15:20:58.000Z</time>
      </trkpt>
      <trkpt lat="49.47001" lon="3.68245">
        <ele>97.45</ele>
        <time>2017-11-20T15:21:08.000Z</time>
      </trkpt>
      <trkpt lat="49.46989" lon="3.68249">
        <ele>96.46</ele>
        <time>2017-11-20T15:21:18.000Z</time>
      </trkpt>
      <trkpt lat="49.46977" lon="3.68252">
        <ele>96.06</ele>
        <time>2017-11-20T15:21:28.000Z</time>
      </trkpt>
      <trkpt lat="49.46965" lon="3.68254">
        <ele>95.81</ele>
        <time>2017-11-20T15:21:38.000Z</time>
      </trkpt>
      <trkpt lat="49.46953" lon="3.68255">
        <ele>95.92</ele>
        <time>2017-11-20T15:21:48.000Z</time>
      </trkpt>
      <trkpt lat="49.4694" lon="3.68256">
        <ele>96.1</ele>
        <time>2017-11-20T15:21:58.000Z</time>
      </trkpt>
      <trkpt lat="49.4693" lon="3.68258">
        <ele>96.04</ele>
        <time>2017-11-20T15:22:08.000Z</time>
      </trkpt>
      <trkpt lat="49.46919" lon="3.68257">
        <ele>96.8</ele>
        <time>2017-11-20T15:22:17.000Z</time>
      </trkpt>
    </trkseg>
  </trk>
</gpx>